
Distance (Route):
Temperature : -27.6°C
Humidity : 75.0%
Pressure : 0hPa| Receiver | Frames | First received | Last received |
|---|---|---|---|
| BIOWL1-15 | 255 | 2026-09-02 00:06:29 | 2026-09-02 01:05:45 |
| DM0DOS-11 | 213 | 2026-09-02 00:06:44 | 2026-09-02 01:04:39 |
| AU51GT2 | 75 | 2026-09-01 23:59:47 | 2026-09-02 01:08:04 |
| DB0UT-7 | 54 | 2026-09-01 23:51:36 | 2026-09-02 01:12:25 |
| HTAHTA | 47 | 2026-09-02 00:19:55 | 2026-09-02 01:01:19 |
| DO1YAY-16 | 45 | 2026-09-02 00:24:38 | 2026-09-02 01:00:22 |
| BIOWL9-15 | 22 | 2026-09-02 00:14:45 | 2026-09-02 01:04:57 |
| DJ2DS-15 | 12 | 2026-09-02 00:21:42 | 2026-09-02 01:02:35 |
| DL1XH-west | 5 | 2026-09-02 00:53:42 | 2026-09-02 00:54:50 |
| BIOWL7-15 | 1 | 2026-09-02 00:57:40 | 2026-09-02 00:57:40 |
| Receiver | Date | Latitude | Longitude | Direction | Speed | Altitude | Climb | Temperature | Humidity | Pressure | Voltage | Killtimer | Uptime | BKT | XDATA |
|---|---|---|---|---|---|---|---|---|---|---|---|---|---|---|---|
| DB0UT-7 | 2026-09-02 01:12:25 | 50.62246 | 1.67331 | 110° | 93km/h | 7677m | -11.9m/s | -27.6°C | 75.0% | 0hPa | 2.6V | 00:00:00 | 02:22:11 | 00:00:00 | |
| DB0UT-7 | 2026-09-02 01:11:55 | 50.62437 | 1.66262 | 100° | 99km/h | 8010m | -11.5m/s | -30.1°C | 92.0% | 0hPa | 2.6V | 00:00:00 | 00:00:00 | 00:00:00 | |
| DB0UT-7 | 2026-09-02 01:10:43 | 50.62799 | 1.63670 | 107° | 99km/h | 8853m | -11.8m/s | -37.7°C | 89.6% | 0hPa | 2.5V | 00:00:00 | 02:20:29 | 00:00:00 | |
| DB0UT-7 | 2026-09-02 01:10:13 | 50.63012 | 1.62543 | 104° | 111km/h | 9213m | -11.9m/s | -40.9°C | 74.2% | 0hPa | 2.5V | 00:00:00 | 00:00:00 | 00:00:00 | |
| DB0UT-7 | 2026-09-02 01:08:59 | 50.63539 | 1.59475 | 111° | 117km/h | 10115m | -12.6m/s | -48.7°C | 62.3% | 0hPa | 2.5V | 08:16:00 | 02:18:45 | 00:00:00 | |
| DB0UT-7 | 2026-09-02 01:08:29 | 50.63946 | 1.58241 | 125° | 133km/h | 10492m | -12.5m/s | -51.0°C | 33.9% | 0hPa | 2.6V | 00:00:00 | 00:00:00 | 00:00:00 | |
| AU51GT2 | 2026-09-02 01:08:04 | 50.64700 | 1.56610 | 126° | 128km/h | 11030m | -13.5m/s | 0°C | -1.0% | -1.0hPa | 2.6V | 00:00:00 | 00:00:00 | 00:00:00 | |
| AU51GT2 | 2026-09-02 01:07:33 | 50.65037 | 1.55944 | 129° | 137km/h | 11254m | -14.3m/s | 0°C | -1.0% | -1.0hPa | 2.6V | 00:00:00 | 00:00:00 | 00:00:00 | |
| DB0UT-7 | 2026-09-02 01:07:17 | 50.65399 | 1.55294 | 133° | 142km/h | 11483m | -14.5m/s | -54.5°C | 24.0% | 0hPa | 2.6V | 00:00:00 | 02:17:03 | 00:00:00 | |
| DB0UT-7 | 2026-09-02 01:06:47 | 50.66162 | 1.54103 | 136° | 106km/h | 11930m | -15.2m/s | -55.6°C | 15.9% | 0hPa | 2.6V | 00:00:00 | 00:00:00 | 00:00:00 | |
| AU51GT2 | 2026-09-02 01:06:31 | 50.66860 | 1.52901 | 131° | 113km/h | 12397m | -15.6m/s | -54.4°C | 2.7% | -1.0hPa | 2.5V | 00:00:00 | 00:00:00 | 00:00:00 | |
| AU51GT2 | 2026-09-02 01:06:01 | 50.67148 | 1.52345 | 130° | 108km/h | 12646m | -15.5m/s | -53.7°C | 2.0% | -1.0hPa | 2.5V | 00:00:00 | 00:00:00 | 00:00:00 | |
| BIOWL1-15 | 2026-09-02 01:05:45 | 50.67418 | 1.51811 | 123° | 97km/h | 12916m | -16.4m/s | -53.5°C | 1% | 0hPa | 2.5V | 08:19:51 | 02:15:29 | 00:00:00 | |
| BIOWL1-15 | 2026-09-02 01:05:32 | 50.67573 | 1.51406 | 119° | 100km/h | 13114m | -16.5m/s | -53.3°C | 0.8% | 0hPa | 2.5V | 08:19:51 | 02:15:17 | 00:00:00 | |
| BIOWL1-15 | 2026-09-02 01:05:22 | 50.67691 | 1.51004 | 110° | 100km/h | 13292m | -17m/s | -53.6°C | 0.8% | 0hPa | 2.5V | 08:20:42 | 02:15:06 | 00:00:00 | |
| BIOWL1-15 | 2026-09-02 01:05:09 | 50.67820 | 1.50419 | 111° | 102km/h | 13548m | -17m/s | -53.7°C | 0.8% | 0hPa | 2.6V | 08:20:42 | 02:14:51 | 00:00:00 | |
| BIOWL1-15 | 2026-09-02 01:04:58 | 50.67884 | 1.50164 | 113° | 95km/h | 13661m | -16.3m/s | -53°C | 0.8% | 0hPa | 2.5V | 08:20:42 | 02:14:44 | 00:00:00 | |
| BIOWL9-15 | 2026-09-02 01:04:57 | 50.67894 | 1.50130 | 114° | 93km/h | 13677m | -16.2m/s | -52.8°C | 1.4% | -1.0hPa | 2.5V | 00:00:00 | 00:00:00 | 00:00:00 | |
| BIOWL1-15 | 2026-09-02 01:04:48 | 50.68058 | 1.49682 | 123° | 89km/h | 13929m | -17.1m/s | -52.4°C | 0.6% | 0hPa | 2.5V | 08:20:42 | 02:14:28 | 00:00:00 | |
| DM0DOS-11 | 2026-09-02 01:04:39 | 50.68132 | 1.49498 | 123° | 89km/h | 14033m | -17.3m/s | -53.3°C | 4% | 0hPa | 2.5V | 08:20:38 | 02:14:22 | 00:00:00 | |
| BIOWL1-15 | 2026-09-02 01:04:35 | 50.68145 | 1.49468 | 122° | 89km/h | 14050m | -17.4m/s | -53.4°C | 0.7% | 0hPa | 2.5V | 08:20:42 | 02:14:21 | 00:00:00 | |
| BIOWL1-15 | 2026-09-02 01:04:25 | 50.68265 | 1.49184 | 122° | 84km/h | 14227m | -18.1m/s | -54.1°C | 0.7% | 0hPa | 2.6V | 08:22:24 | 02:14:11 | 00:00:00 | |
| BIOWL1-15 | 2026-09-02 01:04:14 | 50.68384 | 1.48870 | 119° | 82km/h | 14419m | -18.6m/s | -54.8°C | 0.8% | 0hPa | 2.6V | 08:22:24 | 02:14:00 | 00:00:00 | |
| BIOWL1-15 | 2026-09-02 01:04:04 | 50.68488 | 1.48569 | 118° | 68km/h | 14617m | -18m/s | -52.7°C | 0.3% | 0hPa | 2.5V | 08:22:24 | 02:13:49 | 00:00:00 | |
| BIOWL1-15 | 2026-09-02 01:03:53 | 50.68551 | 1.48333 | 111° | 64km/h | 14802m | -18.8m/s | -53.1°C | 0.2% | 0hPa | 2.5V | 08:22:24 | 02:13:39 | 00:00:00 | |
| DB0UT-7 | 2026-09-02 01:03:52 | 50.68557 | 1.48310 | 115° | 62km/h | 14821m | -18.9m/s | -52.9°C | 3.7% | 0hPa | 2.5V | 00:00:00 | 02:13:38 | 00:00:00 | |
| DM0DOS-11 | 2026-09-02 01:03:36 | 50.68623 | 1.47868 | 92° | 64km/h | 15197m | -19m/s | -54.2°C | 3.9% | 0hPa | 2.6V | 08:21:42 | 02:13:18 | 00:00:00 | |
| BIOWL1-15 | 2026-09-02 01:03:30 | 50.68624 | 1.47818 | 91° | 64km/h | 15235m | -19.5m/s | -54.5°C | 0.3% | 0hPa | 2.6V | 08:22:24 | 02:13:16 | 00:00:00 | |
| BIOWL1-15 | 2026-09-02 01:03:24 | 50.68637 | 1.47539 | 100° | 75km/h | 15428m | -19.3m/s | -55.1°C | 0.4% | 0hPa | 2.6V | 08:22:24 | 02:13:06 | 00:00:00 | |
| DM0DOS-11 | 2026-09-02 01:03:23 | 50.68632 | 1.47597 | 96° | 73km/h | 15389m | -19.4m/s | -55°C | 4.2% | 0hPa | 2.5V | 08:21:52 | 02:13:08 | 00:00:00 | |
| DB0UT-7 | 2026-09-02 01:03:22 | 50.68632 | 1.47597 | 97° | 57km/h | 15389m | -19.3m/s | -55.0°C | 4.2% | 0hPa | 2.6V | 00:00:00 | 00:00:00 | 00:00:00 | |
| DM0DOS-11 | 2026-09-02 01:03:17 | 50.68668 | 1.47327 | 106° | 68km/h | 15576m | -18m/s | -54.6°C | 4.2% | 0hPa | 2.6V | 08:22:02 | 02:12:58 | 00:00:00 | |
| BIOWL1-15 | 2026-09-02 01:03:10 | 50.68679 | 1.47275 | 110° | 66km/h | 15612m | -17.1m/s | -54.7°C | 0.4% | 0hPa | 2.5V | 08:22:24 | 02:12:56 | 00:00:00 | |
| DM0DOS-11 | 2026-09-02 01:03:04 | 50.68729 | 1.47087 | 112° | 60km/h | 15759m | -20.5m/s | -53.3°C | 3.7% | 0hPa | 2.6V | 08:22:12 | 02:12:48 | 00:00:00 | |
| BIOWL1-15 | 2026-09-02 01:02:59 | 50.68748 | 1.47027 | 116° | 55km/h | 15820m | -20.2m/s | -53.1°C | 0.1% | 0hPa | 2.5V | 08:22:24 | 02:12:45 | 00:00:00 | |
| DM0DOS-11 | 2026-09-02 01:02:58 | 50.68788 | 1.46898 | 111° | 49km/h | 15947m | -17.4m/s | -53°C | 3.7% | 0hPa | 2.5V | 08:22:22 | 02:12:38 | 00:00:00 | |
| BIOWL1-15 | 2026-09-02 01:02:48 | 50.68804 | 1.46825 | 107° | 47km/h | 16021m | -20.1m/s | -53.1°C | 0.1% | 0hPa | 2.6V | 08:23:15 | 02:12:34 | 00:00:00 | |
| DM0DOS-11 | 2026-09-02 01:02:44 | 50.68815 | 1.46718 | 90° | 44km/h | 16136m | -19.7m/s | -52.9°C | 3.6% | 0hPa | 2.5V | 08:22:32 | 02:12:28 | 00:00:00 | |
| DJ2DS-15 | 2026-09-02 01:02:35 | 50.68808 | 1.46576 | 82° | 60km/h | 16267m | -19.2m/s | -53.3°C | 1.0% | -1.0hPa | 2.6V | 00:00:00 | 00:00:00 | 00:00:00 | |
| DM0DOS-11 | 2026-09-02 01:02:34 | 50.68803 | 1.46506 | 84° | 62km/h | 16323m | -19.8m/s | -53.2°C | 3.7% | 0hPa | 2.6V | 08:22:42 | 02:12:18 | 00:00:00 | |
| BIOWL1-15 | 2026-09-02 01:02:31 | 50.68801 | 1.46434 | 91° | 58km/h | 16381m | -18.4m/s | -53.3°C | 0.1% | 0hPa | 2.5V | 08:23:15 | 02:12:15 | 00:00:00 | |
| AU51GT2 | 2026-09-02 01:02:23 | 50.68809 | 1.46299 | 99° | 51km/h | 16494m | -19.9m/s | -53.3°C | 1.0% | -1.0hPa | 2.6V | 00:00:00 | 00:00:00 | 00:00:00 | |
| DM0DOS-11 | 2026-09-02 01:02:22 | 50.68814 | 1.46257 | 99° | 51km/h | 16533m | -19.5m/s | -53°C | 3.6% | 0hPa | 2.6V | 08:22:53 | 02:12:07 | 00:00:00 | |
| BIOWL1-15 | 2026-09-02 01:02:21 | 50.68818 | 1.46217 | 98° | 49km/h | 16569m | -18m/s | -52.9°C | 0% | 0hPa | 2.5V | 08:23:15 | 02:12:05 | 00:00:00 | |
| DM0DOS-11 | 2026-09-02 01:02:15 | 50.68822 | 1.46054 | 92° | 51km/h | 16724m | -19.1m/s | -53.8°C | 3.8% | 0hPa | 2.5V | 08:23:03 | 02:11:57 | 00:00:00 | |
| BIOWL1-15 | 2026-09-02 01:02:11 | 50.68823 | 1.46054 | 93° | 51km/h | 16724m | -19.1m/s | -53.8°C | 0.1% | 0hPa | 2.5V | 08:23:15 | 02:11:57 | 00:00:00 | |
| DB0UT-7 | 2026-09-02 01:02:09 | 50.68823 | 1.46010 | 92° | 51km/h | 16762m | -20.9m/s | -53.9°C | 3.9% | 0hPa | 2.5V | 00:00:00 | 02:11:55 | 00:00:00 | |
| DM0DOS-11 | 2026-09-02 01:02:03 | 50.68842 | 1.45830 | 106° | 57km/h | 16918m | -21.4m/s | -53.9°C | 3.7% | 0hPa | 2.5V | 08:23:13 | 02:11:47 | 00:00:00 | |
| BIOWL1-15 | 2026-09-02 01:02:01 | 50.68853 | 1.45767 | 108° | 53km/h | 16981m | -19.8m/s | -53.6°C | 0% | 0hPa | 2.6V | 08:24:06 | 02:11:44 | 00:00:00 | |
| DM0DOS-11 | 2026-09-02 01:01:52 | 50.68887 | 1.45594 | 107° | 49km/h | 17154m | -18.4m/s | -53.3°C | 3.6% | 0hPa | 2.5V | 08:23:25 | 02:11:35 | 00:00:00 | |
| BIOWL1-15 | 2026-09-02 01:01:47 | 50.68895 | 1.45556 | 111° | 49km/h | 17194m | -20m/s | -53.4°C | 0% | 0hPa | 2.6V | 08:24:06 | 02:11:33 | 00:00:00 | |
| DB0UT-7 | 2026-09-02 01:01:39 | 50.68921 | 1.45419 | 102° | 40km/h | 17362m | -20.8m/s | -53.6°C | 3.7% | 0hPa | 2.5V | 08:23:00 | 00:00:00 | 00:00:00 | |
| DM0DOS-11 | 2026-09-02 01:01:32 | 50.68927 | 1.45297 | 86° | 38km/h | 17529m | -21.6m/s | -54.1°C | 3.9% | 0hPa | 2.5V | 08:23:43 | 02:11:17 | 00:00:00 | |
| BIOWL1-15 | 2026-09-02 01:01:23 | 50.68940 | 1.45079 | 109° | 42km/h | 17800m | -19.8m/s | -53.3°C | 0% | 0hPa | 2.5V | 08:24:06 | 02:11:04 | 00:00:00 | |
| DM0DOS-11 | 2026-09-02 01:01:23 | 50.68932 | 1.45129 | 102° | 44km/h | 17736m | -20.7m/s | -54.1°C | 3.9% | 0hPa | 2.5V | 08:23:53 | 02:11:07 | 00:00:00 | |
| AU51GT2 | 2026-09-02 01:01:21 | 50.68932 | 1.45129 | 102° | 42km/h | 17736m | -20.7m/s | -54.1°C | 0.9% | -1.0hPa | 2.5V | 00:00:00 | 00:00:00 | 00:00:00 | |
| BIOWL9-15 | 2026-09-02 01:01:20 | 50.68937 | 1.45095 | 103° | 46km/h | 17779m | -21.3m/s | -53.5°C | 0.9% | -1.0hPa | 2.5V | 00:00:00 | 00:00:00 | 00:00:00 | |
| HTAHTA | 2026-09-02 01:01:19 | 50.68937 | 1.45095 | 103° | 46km/h | 17779m | -21.3m/s | -53.5°C | 0.9% | -1.0hPa | 2.5V | 00:00:00 | 00:00:00 | 00:00:00 | |
| DM0DOS-11 | 2026-09-02 01:01:14 | 50.68964 | 1.44967 | 109° | 42km/h | 17935m | -19.4m/s | -52.9°C | 3.6% | 0hPa | 2.5V | 08:24:03 | 02:10:57 | 00:00:00 | |
| BIOWL1-15 | 2026-09-02 01:01:13 | 50.68958 | 1.44998 | 109° | 42km/h | 17896m | -19.2m/s | -52.8°C | 0% | 0hPa | 2.5V | 08:24:06 | 02:10:59 | 00:00:00 | |
| DM0DOS-11 | 2026-09-02 01:01:03 | 50.68982 | 1.44812 | 99° | 42km/h | 18132m | -21.5m/s | -53.4°C | 3.8% | 0hPa | 2.5V | 08:24:13 | 02:10:47 | 00:00:00 | |
| BIOWL1-15 | 2026-09-02 01:01:02 | 50.68980 | 1.44828 | 99° | 38km/h | 18110m | -21.2m/s | -53.3°C | 0.1% | 0hPa | 2.6V | 08:24:57 | 02:10:48 | 00:00:00 | |
| DM0DOS-11 | 2026-09-02 01:00:52 | 50.69003 | 1.44648 | 88° | 29km/h | 18405m | -22m/s | -52.6°C | 3.6% | 0hPa | 2.5V | 08:24:26 | 02:10:34 | 00:00:00 | |
| BIOWL1-15 | 2026-09-02 01:00:51 | 50.69003 | 1.44648 | 89° | 29km/h | 18405m | -22m/s | -52.6°C | 0% | 0hPa | 2.5V | 08:24:57 | 02:10:34 | 00:00:00 | |
| AU51GT2 | 2026-09-02 01:00:50 | 50.69002 | 1.44671 | 93° | 29km/h | 18364m | -19.5m/s | -52.9°C | 0.8% | -1.0hPa | 2.6V | 00:00:00 | 00:00:00 | 00:00:00 | |
| BIOWL9-15 | 2026-09-02 01:00:48 | 50.69003 | 1.44648 | 88° | 29km/h | 18405m | -22.0m/s | -52.6°C | 0.8% | -1.0hPa | 2.6V | 00:00:00 | 00:00:00 | 00:00:00 | |
| BIOWL1-15 | 2026-09-02 01:00:43 | 50.69001 | 1.44494 | 87° | 44km/h | 18645m | -19.9m/s | -51.8°C | 0% | 0hPa | 2.6V | 08:24:57 | 02:10:23 | 00:00:00 | |
| DM0DOS-11 | 2026-09-02 01:00:42 | 50.69001 | 1.44510 | 88° | 40km/h | 18624m | -19.8m/s | -52°C | 3.4% | 0hPa | 2.5V | 08:24:36 | 02:10:24 | 00:00:00 | |
| DM0DOS-11 | 2026-09-02 01:00:32 | 50.69005 | 1.44346 | 95° | 40km/h | 18839m | -20.6m/s | -51.9°C | 3.4% | 0hPa | 2.5V | 08:24:46 | 02:10:14 | 00:00:00 | |
| DB0UT-7 | 2026-09-02 01:00:27 | 50.69006 | 1.44330 | 96° | 38km/h | 18860m | -21.3m/s | -51.8°C | 3.3% | 0hPa | 2.6V | 00:00:00 | 02:10:13 | 00:00:00 | |
| DO1YAY-16 | 2026-09-02 01:00:22 | 50.69017 | 1.44224 | 106° | 38km/h | 19016m | -21.5m/s | -52.2°C | 0.7% | -1.0hPa | 2.6V | 00:00:00 | 00:00:00 | 00:00:00 | |
| DM0DOS-11 | 2026-09-02 01:00:19 | 50.69025 | 1.44132 | 89° | 37km/h | 19152m | -22.4m/s | -52°C | 3.4% | 0hPa | 2.6V | 08:25:00 | 02:10:00 | 00:00:00 | |
| BIOWL1-15 | 2026-09-02 01:00:13 | 50.69026 | 1.44117 | 92° | 38km/h | 19174m | -22.1m/s | -52.1°C | 0% | 0hPa | 2.6V | 08:25:48 | 02:09:59 | 00:00:00 | |
| DJ2DS-15 | 2026-09-02 01:00:11 | 50.69025 | 1.44085 | 84° | 40km/h | 19216m | -21.4m/s | -52.4°C | 0.7% | -1.0hPa | 2.6V | 00:00:00 | 00:00:00 | 00:00:00 | |
| DM0DOS-11 | 2026-09-02 01:00:09 | 50.69023 | 1.43976 | 95° | 37km/h | 19375m | -22.2m/s | -52.8°C | 3.6% | 0hPa | 2.6V | 08:25:10 | 02:09:50 | 00:00:00 | |
| BIOWL1-15 | 2026-09-02 01:00:02 | 50.69032 | 1.43907 | 110° | 33km/h | 19492m | -21.8m/s | -52.8°C | 0.1% | 0hPa | 2.6V | 08:25:48 | 02:09:45 | 00:00:00 | |
| BIOWL1-15 | 2026-09-02 00:59:52 | 50.69049 | 1.43822 | 97° | 20km/h | 19692m | -22m/s | -52.6°C | 0% | 0hPa | 2.5V | 08:25:48 | 02:09:36 | 00:00:00 | |
| DO1YAY-16 | 2026-09-02 00:59:49 | 50.69050 | 1.43815 | 100° | 16km/h | 19714m | -23.2m/s | -52.5°C | 0.8% | -1.0hPa | 2.5V | 00:00:00 | 00:00:00 | 00:00:00 | |
| AU51GT2 | 2026-09-02 00:59:48 | 50.69050 | 1.43800 | 88° | 20km/h | 19762m | -25.7m/s | -52.6°C | 0.8% | -1.0hPa | 2.5V | 00:00:00 | 00:00:00 | 00:00:00 | |
| HTAHTA | 2026-09-02 00:59:46 | 50.69051 | 1.43792 | 89° | 16km/h | 19787m | -24.8m/s | -52.6°C | 0.7% | -1.0hPa | 2.5V | 00:00:00 | 00:00:00 | 00:00:00 | |
| BIOWL1-15 | 2026-09-02 00:59:40 | 50.69050 | 1.43719 | 74° | 18km/h | 19987m | -22.4m/s | -52.1°C | 0% | 0hPa | 2.5V | 08:25:48 | 02:09:23 | 00:00:00 | |
| DM0DOS-11 | 2026-09-02 00:59:39 | 50.69043 | 1.43695 | 59° | 24km/h | 20054m | -21.8m/s | -52.3°C | 3.5% | 0hPa | 2.6V | 08:25:40 | 02:09:20 | 00:00:00 | |
| BIOWL1-15 | 2026-09-02 00:59:29 | 50.69021 | 1.43651 | 53° | 29km/h | 20166m | -22m/s | -52.5°C | 0% | 0hPa | 2.6V | 08:25:48 | 02:09:15 | 00:00:00 | |
| DM0DOS-11 | 2026-09-02 00:59:29 | 50.68998 | 1.43601 | 60° | 31km/h | 20278m | -23.2m/s | -52.9°C | 3.7% | 0hPa | 2.6V | 08:25:50 | 02:09:10 | 00:00:00 | |
| BIOWL1-15 | 2026-09-02 00:59:19 | 50.68978 | 1.43510 | 79° | 27km/h | 20458m | -22.6m/s | -52.7°C | 0.1% | 0hPa | 2.5V | 08:26:39 | 02:09:02 | 00:00:00 | |
| DO1YAY-16 | 2026-09-02 00:59:19 | 50.68981 | 1.43533 | 76° | 27km/h | 20412m | -23.1m/s | -52.9°C | 0.8% | -1.0hPa | 2.6V | 00:00:00 | 00:00:00 | 00:00:00 | |
| AU51GT2 | 2026-09-02 00:59:17 | 50.68978 | 1.43510 | 79° | 27km/h | 20458m | -22.6m/s | -52.7°C | 0.8% | -1.0hPa | 2.6V | 00:00:00 | 00:00:00 | 00:00:00 | |
| DM0DOS-11 | 2026-09-02 00:59:14 | 50.68974 | 1.43491 | 72° | 24km/h | 20502m | -23.2m/s | -52.5°C | 3.5% | 0hPa | 2.6V | 08:26:00 | 02:09:00 | 00:00:00 | |
| DM0DOS-11 | 2026-09-02 00:59:09 | 50.68962 | 1.43411 | 83° | 18km/h | 20749m | -25m/s | -52.5°C | 3.6% | 0hPa | 2.6V | 08:26:10 | 02:08:50 | 00:00:00 | |
| BIOWL1-15 | 2026-09-02 00:58:53 | 50.68950 | 1.43322 | 79° | 24km/h | 21012m | -24.3m/s | -52.2°C | 0% | 0hPa | 2.6V | 08:26:39 | 02:08:39 | 00:00:00 | |
| DO1YAY-16 | 2026-09-02 00:58:47 | 50.68949 | 1.43261 | 94° | 33km/h | 21175m | -28.9m/s | -52.0°C | 0.7% | -1.0hPa | 2.6V | 00:00:00 | 00:00:00 | 00:00:00 | |
| AU51GT2 | 2026-09-02 00:58:46 | 50.68950 | 1.43248 | 91° | 33km/h | 21202m | -26.6m/s | -52.2°C | 0.7% | -1.0hPa | 2.6V | 00:00:00 | 00:00:00 | 00:00:00 | |
| BIOWL1-15 | 2026-09-02 00:58:45 | 50.68952 | 1.43209 | 94° | 35km/h | 21279m | -27.8m/s | -52.6°C | 0% | 0hPa | 2.6V | 08:26:39 | 02:08:29 | 00:00:00 | |
| DB0UT-7 | 2026-09-02 00:58:45 | 50.68950 | 1.43235 | 98° | 16km/h | 21228m | -25.4m/s | -52.3°C | 3.5% | 0hPa | 2.5V | 00:00:00 | 02:08:31 | 00:00:00 | |
| HTAHTA | 2026-09-02 00:58:44 | 50.68952 | 1.43209 | 94° | 35km/h | 21279m | -27.8m/s | -52.6°C | 0.7% | -1.0hPa | 2.6V | 00:00:00 | 00:00:00 | 00:00:00 | |
| DM0DOS-11 | 2026-09-02 00:58:43 | 50.68958 | 1.43161 | 105° | 29km/h | 21388m | -29.5m/s | -52.5°C | 3.6% | 0hPa | 2.6V | 08:26:35 | 02:08:25 | 00:00:00 | |
| BIOWL1-15 | 2026-09-02 00:58:35 | 50.68974 | 1.43120 | 147° | 13km/h | 21546m | -25.9m/s | -52.4°C | 0% | 0hPa | 2.6V | 08:27:30 | 02:08:19 | 00:00:00 | |
| DM0DOS-11 | 2026-09-02 00:58:33 | 50.68981 | 1.43112 | 126° | 4km/h | 21653m | -28.4m/s | -52.6°C | 3.7% | 0hPa | 2.6V | 08:26:45 | 02:08:15 | 00:00:00 | |
| DM0DOS-11 | 2026-09-02 00:58:23 | 50.68961 | 1.43101 | 50° | 15km/h | 21923m | -27.1m/s | -52.9°C | 3.8% | 0hPa | 2.6V | 08:26:55 | 02:08:05 | 00:00:00 | |
| BIOWL1-15 | 2026-09-02 00:58:22 | 50.68964 | 1.43105 | 28° | 15km/h | 21895m | -27m/s | -52.9°C | 0.1% | 0hPa | 2.5V | 08:27:30 | 02:08:06 | 00:00:00 | |
| DO1YAY-16 | 2026-09-02 00:58:16 | 50.68956 | 1.43086 | 78° | 18km/h | 22004m | -27.1m/s | -52.6°C | 0.7% | -1.0hPa | 2.6V | 00:00:00 | 00:00:00 | 00:00:00 | |
| AU51GT2 | 2026-09-02 00:58:15 | 50.68956 | 1.43072 | 99° | 20km/h | 22057m | -25.9m/s | -52.1°C | 0.7% | -1.0hPa | 2.6V | 00:00:00 | 00:00:00 | 00:00:00 | |
| DM0DOS-11 | 2026-09-02 00:58:13 | 50.68967 | 1.43035 | 121° | 20km/h | 22197m | -28.6m/s | -51.6°C | 3.5% | 0hPa | 2.6V | 08:27:05 | 02:07:55 | 00:00:00 | |
| BIOWL1-15 | 2026-09-02 00:58:11 | 50.68967 | 1.43035 | 121° | 20km/h | 22197m | -28.7m/s | -51.6°C | 0% | 0hPa | 2.6V | 08:27:30 | 02:07:55 | 00:00:00 | |
| BIOWL1-15 | 2026-09-02 00:57:59 | 50.69004 | 1.42993 | 165° | 13km/h | 22486m | -29.9m/s | -51.2°C | 0% | 0hPa | 2.6V | 08:27:30 | 02:07:45 | 00:00:00 | |
| BIOWL1-15 | 2026-09-02 00:57:44 | 50.68988 | 1.42980 | 10° | 18km/h | 22912m | -29.7m/s | -52.1°C | 0.1% | 0hPa | 2.6V | 08:27:30 | 02:07:30 | 00:00:00 | |
| AU51GT2 | 2026-09-02 00:57:44 | 50.68984 | 1.42978 | 20° | 15km/h | 22942m | -30.5m/s | -52.1°C | 0.7% | -1.0hPa | 2.6V | 00:00:00 | 00:00:00 | 00:00:00 | |
| BIOWL9-15 | 2026-09-02 00:57:42 | 50.68981 | 1.42975 | 38° | 13km/h | 22973m | -31.7m/s | -52.2°C | 0.7% | -1.0hPa | 2.6V | 00:00:00 | 00:00:00 | 00:00:00 | |
| BIOWL7-15 | 2026-09-02 00:57:40 | 50.68979 | 1.42972 | 50° | 9km/h | 23005m | -31.9m/s | 0°C | 0% | 0hPa | 2.6V | 00:00:00 | 00:00:00 | 00:00:00 | |
| DM0DOS-11 | 2026-09-02 00:57:38 | 50.68994 | 1.42943 | 164° | 15km/h | 23246m | -31m/s | -51.8°C | 3.5% | 0hPa | 2.6V | 08:27:41 | 02:07:19 | 00:00:00 | |
| BIOWL1-15 | 2026-09-02 00:57:33 | 50.68994 | 1.42943 | 165° | 15km/h | 23246m | -31m/s | -51.8°C | 0% | 0hPa | 2.6V | 08:28:21 | 02:07:19 | 00:00:00 | |
| DM0DOS-11 | 2026-09-02 00:57:24 | 50.68992 | 1.42933 | 26° | 18km/h | 23547m | -30.4m/s | -51.4°C | 3.4% | 0hPa | 2.6V | 08:27:51 | 02:07:09 | 00:00:00 | |
| BIOWL1-15 | 2026-09-02 00:57:22 | 50.68984 | 1.42926 | 30° | 20km/h | 23606m | -28.7m/s | -51.6°C | 0% | 0hPa | 2.5V | 08:28:21 | 02:07:07 | 00:00:00 | |
| DM0DOS-11 | 2026-09-02 00:57:19 | 50.68954 | 1.42872 | 70° | 18km/h | 23848m | -31.6m/s | -51.2°C | 3.4% | 0hPa | 2.6V | 08:28:01 | 02:06:59 | 00:00:00 | |
| BIOWL1-15 | 2026-09-02 00:57:15 | 50.68952 | 1.42857 | 95° | 11km/h | 23944m | -32.4m/s | -51.3°C | 0% | 0hPa | 2.5V | 08:28:21 | 02:06:56 | 00:00:00 | |
| DO1YAY-16 | 2026-09-02 00:57:14 | 50.68956 | 1.42878 | 63° | 16km/h | 23817m | -32.6m/s | -51.3°C | 0.7% | -1.0hPa | 2.6V | 00:00:00 | 00:00:00 | 00:00:00 | |
| AU51GT2 | 2026-09-02 00:57:13 | 50.68953 | 1.42866 | 75° | 13km/h | 23880m | -30.9m/s | -51.2°C | 0.6% | -1.0hPa | 2.6V | 00:00:00 | 00:00:00 | 00:00:00 | |
| DJ2DS-15 | 2026-09-02 00:57:11 | 50.68952 | 1.42857 | 95° | 11km/h | 23944m | -32.4m/s | -51.3°C | 0.6% | -1.0hPa | 2.6V | 00:00:00 | 00:00:00 | 00:00:00 | |
| HTAHTA | 2026-09-02 00:57:10 | 50.68952 | 1.42854 | 145° | 5km/h | 23976m | -32.9m/s | -51.5°C | 0.7% | -1.0hPa | 2.6V | 00:00:00 | 00:00:00 | 00:00:00 | |
| DM0DOS-11 | 2026-09-02 00:57:08 | 50.68966 | 1.42857 | 210° | 13km/h | 24161m | -31.4m/s | -51.7°C | 3.6% | 0hPa | 2.6V | 08:28:11 | 02:06:49 | 00:00:00 | |
| BIOWL1-15 | 2026-09-02 00:56:59 | 50.68964 | 1.42861 | 59° | 9km/h | 24424m | -31.8m/s | -51.7°C | 0.2% | 0hPa | 2.5V | 08:28:21 | 02:06:41 | 00:00:00 | |
| DM0DOS-11 | 2026-09-02 00:56:58 | 50.68962 | 1.42855 | 61° | 9km/h | 24487m | -31.7m/s | -51.7°C | 3.7% | 0hPa | 2.6V | 08:28:21 | 02:06:39 | 00:00:00 | |
| DM0DOS-11 | 2026-09-02 00:56:48 | 50.68967 | 1.42827 | 123° | 7km/h | 24806m | -34.1m/s | -51°C | 3.6% | 0hPa | 2.6V | 08:30:00 | 02:06:29 | 00:00:00 | |
| BIOWL1-15 | 2026-09-02 00:56:44 | 50.68968 | 1.42822 | 100° | 9km/h | 24875m | -33.5m/s | -50.7°C | 0% | 0hPa | 2.5V | 08:29:12 | 02:06:27 | 00:00:00 | |
| DO1YAY-16 | 2026-09-02 00:56:43 | 50.68968 | 1.42825 | 93° | 4km/h | 24841m | -34.9m/s | -50.9°C | 0.7% | -1.0hPa | 2.6V | 00:00:00 | 00:00:00 | 00:00:00 | |
| AU51GT2 | 2026-09-02 00:56:42 | 50.68968 | 1.42822 | 100° | 9km/h | 24875m | -33.5m/s | -50.7°C | 0.7% | -1.0hPa | 2.6V | 00:00:00 | 00:00:00 | 00:00:00 | |
| BIOWL9-15 | 2026-09-02 00:56:40 | 50.68968 | 1.42818 | 100° | 11km/h | 24909m | -33.2m/s | -50.5°C | 0.6% | -1.0hPa | 2.6V | 00:00:00 | 00:00:00 | 00:00:00 | |
| HTAHTA | 2026-09-02 00:56:39 | 50.68969 | 1.42814 | 112° | 11km/h | 24942m | -33.9m/s | -50.3°C | 0.6% | -1.0hPa | 2.6V | 00:00:00 | 00:00:00 | 00:00:00 | |
| DM0DOS-11 | 2026-09-02 00:56:38 | 50.68982 | 1.42782 | 139° | 15km/h | 25147m | -36.6m/s | -49.8°C | 3.2% | 0hPa | 2.6V | 08:30:00 | 02:06:19 | 00:00:00 | |
| BIOWL1-15 | 2026-09-02 00:56:31 | 50.68988 | 1.42774 | 151° | 15km/h | 25219m | -36.9m/s | -49.9°C | 0% | 0hPa | 2.5V | 08:29:12 | 02:06:17 | 00:00:00 | |
| DM0DOS-11 | 2026-09-02 00:56:28 | 50.69006 | 1.42787 | 263° | 16km/h | 25511m | -37.1m/s | -49.1°C | 3.2% | 0hPa | 2.6V | 08:30:00 | 02:06:09 | 00:00:00 | |
| BIOWL1-15 | 2026-09-02 00:56:21 | 50.69005 | 1.42800 | 280° | 20km/h | 25590m | -40.4m/s | -48.8°C | 0% | 0hPa | 2.5V | 08:29:12 | 02:06:07 | 00:00:00 | |
| DM0DOS-11 | 2026-09-02 00:56:18 | 50.68995 | 1.42839 | 317° | 9km/h | 25902m | -39.6m/s | -49.3°C | 3.3% | 0hPa | 2.6V | 08:30:00 | 02:05:59 | 00:00:00 | |
| BIOWL1-15 | 2026-09-02 00:56:09 | 50.68987 | 1.42844 | 0° | 7km/h | 26063m | -41.5m/s | -49.2°C | 0% | 0hPa | 2.6V | 08:29:12 | 02:05:55 | 00:00:00 | |
| HTAHTA | 2026-09-02 00:56:08 | 50.68985 | 1.42844 | 15° | 9km/h | 26104m | -40.9m/s | -49.0°C | 0.6% | -1.0hPa | 2.5V | 00:00:00 | 00:00:00 | 00:00:00 | |
| DM0DOS-11 | 2026-09-02 00:56:02 | 50.68976 | 1.42836 | 113° | 4km/h | 26383m | -40.3m/s | -48°C | 3.1% | 0hPa | 2.5V | 08:30:00 | 02:05:47 | 00:00:00 | |
| BIOWL1-15 | 2026-09-02 00:55:58 | 50.68981 | 1.42843 | 258° | 11km/h | 26596m | -44.7m/s | -47.2°C | 0% | 0hPa | 2.5V | 18:12:15 | 02:05:42 | 00:00:00 | |
| DM0DOS-11 | 2026-09-02 00:55:52 | 50.68977 | 1.42868 | 320° | 7km/h | 26863m | -43.9m/s | -47.4°C | 2.9% | 0hPa | 2.5V | 08:30:00 | 02:05:36 | 00:00:00 | |
| BIOWL1-15 | 2026-09-02 00:55:49 | 50.68973 | 1.42871 | 344° | 5km/h | 26992m | -44.5m/s | -47.7°C | 0% | 0hPa | 2.5V | 18:12:15 | 02:05:33 | 00:00:00 | |
| DM0DOS-11 | 2026-09-02 00:55:43 | 50.68969 | 1.42863 | 157° | 4km/h | 27289m | -43.4m/s | -46.6°C | 2.7% | 0hPa | 2.5V | 08:30:00 | 02:05:26 | 00:00:00 | |
| BIOWL1-15 | 2026-09-02 00:55:36 | 50.68976 | 1.42864 | 212° | 7km/h | 27457m | -43.7m/s | -46.6°C | 0% | 0hPa | 2.5V | 18:12:15 | 02:05:22 | 00:00:00 | |
| DM0DOS-11 | 2026-09-02 00:55:33 | 50.68975 | 1.42877 | 325° | 11km/h | 27722m | -44m/s | -46°C | 2.6% | 0hPa | 2.5V | 08:30:00 | 02:05:16 | 00:00:00 | |
| BIOWL1-15 | 2026-09-02 00:55:26 | 50.68964 | 1.42888 | 339° | 13km/h | 27892m | -42.3m/s | -46.6°C | 0% | 0hPa | 2.5V | 18:12:15 | 02:05:12 | 00:00:00 | |
| DM0DOS-11 | 2026-09-02 00:55:23 | 50.68948 | 1.42891 | 345° | 5km/h | 28145m | -41.5m/s | -46.9°C | 2.9% | 0hPa | 2.5V | 08:30:00 | 02:05:06 | 00:00:00 | |
| BIOWL1-15 | 2026-09-02 00:55:16 | 50.68932 | 1.42898 | 37° | 7km/h | 28728m | -44.8m/s | -46.1°C | 0% | 0hPa | 2.5V | 18:12:15 | 02:04:53 | 00:00:00 | |
| DM0DOS-11 | 2026-09-02 00:55:12 | 50.68938 | 1.42902 | 10° | 7km/h | 28586m | -46.7m/s | -46.8°C | 3% | 0hPa | 2.5V | 08:30:00 | 02:04:56 | 00:00:00 | |
| DO1YAY-16 | 2026-09-02 00:55:10 | 50.68937 | 1.42902 | 10° | 7km/h | 28586m | -46.7m/s | -46.8°C | 0.5% | -1.0hPa | 2.5V | 00:00:00 | 00:00:00 | 00:00:00 | |
| AU51GT2 | 2026-09-02 00:55:08 | 50.68934 | 1.42900 | 18° | 5km/h | 28682m | -48.2m/s | -46.4°C | 0.5% | -1.0hPa | 2.5V | 00:00:00 | 00:00:00 | 00:00:00 | |
| BIOWL9-15 | 2026-09-02 00:55:07 | 50.68931 | 1.42896 | 51° | 7km/h | 28773m | -44.7m/s | -45.8°C | 0.5% | -1.0hPa | 2.5V | 00:00:00 | 00:00:00 | 00:00:00 | |
| HTAHTA | 2026-09-02 00:55:06 | 50.68931 | 1.42896 | 51° | 7km/h | 28773m | -44.7m/s | -45.8°C | 0.5% | -1.0hPa | 2.5V | 00:00:00 | 00:00:00 | 00:00:00 | |
| DM0DOS-11 | 2026-09-02 00:55:02 | 50.68928 | 1.42875 | 98° | 7km/h | 29043m | -46.9m/s | -45.3°C | 2.6% | 0hPa | 2.5V | 08:30:00 | 02:04:46 | 00:00:00 | |
| BIOWL1-15 | 2026-09-02 00:54:57 | 50.68930 | 1.42868 | 146° | 5km/h | 29241m | -49.1m/s | -44.8°C | 0% | 0hPa | 2.5V | 18:12:15 | 02:04:42 | 00:00:00 | |
| DL1XH-west | 2026-09-02 00:54:50 | 50.68941 | 1.42860 | 160° | 9km/h | 29513m | -36.2m/s | 0°C | 0% | 0hPa | 2.5V | 18:12:15 | 02:04:36 | 00:00:00 | |
| BIOWL1-15 | 2026-09-02 00:54:46 | 50.68952 | 1.42852 | 151° | 18km/h | 29620m | -14.2m/s | -44.7°C | 0% | 0hPa | 2.5V | 18:12:15 | 02:04:32 | 00:00:00 | |
| DM0DOS-11 | 2026-09-02 00:54:45 | 50.68956 | 1.42848 | 151° | 18km/h | 29630m | -5.5m/s | -44.7°C | 2.5% | 0hPa | 2.5V | 08:30:00 | 02:04:31 | 00:00:00 | |
| DM0DOS-11 | 2026-09-02 00:54:40 | 50.68975 | 1.42814 | 42° | 15km/h | 29578m | 4.9m/s | -44.9°C | 2.6% | 0hPa | 2.5V | 08:30:00 | 02:04:21 | 00:00:00 | |
| BIOWL1-15 | 2026-09-02 00:54:36 | 50.68978 | 1.42818 | 48° | 15km/h | 29584m | 5.5m/s | -45°C | 0% | 0hPa | 2.5V | 18:12:15 | 02:04:22 | 00:00:00 | |
| BIOWL1-15 | 2026-09-02 00:54:28 | 50.68982 | 1.42781 | 123° | 15km/h | 29525m | 6.5m/s | -45°C | 0% | 0hPa | 2.5V | 18:12:15 | 02:04:12 | 00:00:00 | |
| DL1XH-west | 2026-09-02 00:54:20 | 50.68972 | 1.42769 | 15° | 18km/h | 29489m | 5.1m/s | 0°C | 0% | 0hPa | 2.5V | 18:12:15 | 02:04:06 | 00:00:00 | |
| DM0DOS-11 | 2026-09-02 00:54:15 | 50.68971 | 1.42751 | 126° | 22km/h | 29460m | 6.8m/s | -45.2°C | 2.5% | 0hPa | 2.5V | 08:30:00 | 02:04:01 | 00:00:00 | |
| BIOWL1-15 | 2026-09-02 00:54:15 | 50.68971 | 1.42751 | 127° | 22km/h | 29460m | 6.8m/s | -45.2°C | 0% | 0hPa | 2.5V | 18:12:15 | 02:04:01 | 00:00:00 | |
| DM0DOS-11 | 2026-09-02 00:54:10 | 50.68974 | 1.42731 | 12° | 15km/h | 29403m | 4.9m/s | -45.7°C | 2.6% | 0hPa | 2.5V | 08:30:00 | 02:03:51 | 00:00:00 | |
| DL1XH-west | 2026-09-02 00:54:09 | 50.68985 | 1.42721 | 281° | 7km/h | 29425m | 5.6m/s | 0°C | 0% | 0hPa | 2.6V | 18:12:15 | 02:03:55 | 00:00:00 | |
| BIOWL1-15 | 2026-09-02 00:54:07 | 50.68974 | 1.42731 | 12° | 15km/h | 29403m | 4.9m/s | -45.7°C | 0% | 0hPa | 2.5V | 18:12:15 | 02:03:51 | 00:00:00 | |
| AU51GT2 | 2026-09-02 00:54:06 | 50.68978 | 1.42730 | 347° | 15km/h | 29409m | 5.6m/s | -45.7°C | 0.5% | -1.0hPa | 2.6V | 00:00:00 | 00:00:00 | 00:00:00 | |
| BIOWL1-15 | 2026-09-02 00:53:54 | 50.68979 | 1.42675 | 87° | 18km/h | 29304m | 6.5m/s | -45.7°C | 0% | 0hPa | 2.6V | 18:12:15 | 02:03:34 | 00:00:00 | |
| DL1XH-west | 2026-09-02 00:53:53 | 50.68987 | 1.42695 | 320° | 4km/h | 29334m | 5.4m/s | 0°C | 0% | 0hPa | 2.6V | 18:12:15 | 02:03:39 | 00:00:00 | |
| DM0DOS-11 | 2026-09-02 00:53:50 | 50.68983 | 1.42656 | 130° | 16km/h | 29286m | 5.8m/s | -45.7°C | 2.6% | 0hPa | 2.5V | 08:30:00 | 02:03:31 | 00:00:00 | |
| DL1XH-west | 2026-09-02 00:53:42 | 50.68988 | 1.42646 | 110° | 4km/h | 29269m | 5.6m/s | 0°C | 0% | 0hPa | 2.5V | 18:12:15 | 02:03:28 | 00:00:00 | |
| BIOWL1-15 | 2026-09-02 00:53:39 | 50.68986 | 1.42650 | 304° | 9km/h | 29250m | 5.7m/s | -45.7°C | 0% | 0hPa | 2.6V | 18:12:15 | 02:03:25 | 00:00:00 | |
| DM0DOS-11 | 2026-09-02 00:53:39 | 50.68971 | 1.42646 | 53° | 16km/h | 29222m | 5.5m/s | -45.7°C | 2.6% | 0hPa | 2.6V | 08:30:00 | 02:03:20 | 00:00:00 | |
| BIOWL1-15 | 2026-09-02 00:53:28 | 50.68980 | 1.42623 | 142° | 13km/h | 29188m | 6.2m/s | -45.9°C | 0% | 0hPa | 2.6V | 18:12:15 | 02:03:14 | 00:00:00 | |
| DM0DOS-11 | 2026-09-02 00:53:25 | 50.68982 | 1.42615 | 343° | 4km/h | 29165m | 6.7m/s | -45.9°C | 2.6% | 0hPa | 2.6V | 08:30:00 | 02:03:10 | 00:00:00 | |
| DM0DOS-11 | 2026-09-02 00:53:20 | 50.68988 | 1.42596 | 181° | 16km/h | 29108m | 4.8m/s | -46.1°C | 2.7% | 0hPa | 2.6V | 08:30:00 | 02:03:00 | 00:00:00 | |
| BIOWL1-15 | 2026-09-02 00:53:17 | 50.68977 | 1.42603 | 129° | 15km/h | 29125m | 6.6m/s | -46°C | 0% | 0hPa | 2.5V | 18:12:15 | 02:03:03 | 00:00:00 | |
| DM0DOS-11 | 2026-09-02 00:53:08 | 50.68998 | 1.42572 | 131° | 9km/h | 29041m | 5.9m/s | -46.3°C | 2.7% | 0hPa | 2.5V | 08:30:00 | 02:02:48 | 00:00:00 | |
| BIOWL1-15 | 2026-09-02 00:53:07 | 50.68992 | 1.42578 | 151° | 9km/h | 29058m | 5.1m/s | -46.2°C | 0% | 0hPa | 2.5V | 18:12:15 | 02:02:51 | 00:00:00 | |
| BIOWL1-15 | 2026-09-02 00:52:57 | 50.69006 | 1.42558 | 120° | 4km/h | 29007m | 5.2m/s | -46.5°C | 0% | 0hPa | 2.5V | 18:12:15 | 02:02:42 | 00:00:00 | |
| DM0DOS-11 | 2026-09-02 00:52:52 | 50.68997 | 1.42548 | 25° | 15km/h | 28984m | 5.2m/s | -46.6°C | 2.8% | 0hPa | 2.5V | 08:30:00 | 02:02:38 | 00:00:00 | |
| BIOWL1-15 | 2026-09-02 00:52:46 | 50.68990 | 1.42535 | 101° | 11km/h | 28948m | 5m/s | -46.6°C | 0% | 0hPa | 2.5V | 18:12:15 | 02:02:32 | 00:00:00 | |
| DM0DOS-11 | 2026-09-02 00:52:43 | 50.68995 | 1.42518 | 92° | 11km/h | 28927m | 4.5m/s | -46.6°C | 2.7% | 0hPa | 2.5V | 08:30:00 | 02:02:28 | 00:00:00 | |
| DO1YAY-16 | 2026-09-02 00:52:35 | 50.68965 | 1.42489 | 16° | 7km/h | 28882m | 5.6m/s | -46.5°C | 0.5% | -1.0hPa | 2.5V | 00:00:00 | 00:00:00 | 00:00:00 | |
| DM0DOS-11 | 2026-09-02 00:52:33 | 50.68962 | 1.42485 | 59° | 9km/h | 28870m | 5.4m/s | -46.6°C | 2.7% | 0hPa | 2.5V | 08:30:00 | 02:02:18 | 00:00:00 | |
| HTAHTA | 2026-09-02 00:52:31 | 50.68959 | 1.42477 | 62° | 11km/h | 28860m | 5.2m/s | -46.6°C | 0.5% | -1.0hPa | 2.5V | 00:00:00 | 00:00:00 | 00:00:00 | |
| DM0DOS-11 | 2026-09-02 00:52:27 | 50.68935 | 1.42462 | 3° | 20km/h | 28813m | 6.6m/s | -46.7°C | 2.7% | 0hPa | 2.5V | 08:30:00 | 02:02:08 | 00:00:00 | |
| DM0DOS-11 | 2026-09-02 00:52:17 | 50.68909 | 1.42458 | 307° | 9km/h | 28757m | 5.5m/s | -47.3°C | 2.8% | 0hPa | 2.5V | 08:30:00 | 02:01:58 | 00:00:00 | |
| BIOWL1-15 | 2026-09-02 00:52:15 | 50.68911 | 1.42454 | 334° | 4km/h | 28769m | 6.5m/s | -47.2°C | 0% | 0hPa | 2.6V | 18:12:15 | 02:02:00 | 00:00:00 | |
| BIOWL1-15 | 2026-09-02 00:52:03 | 50.68870 | 1.42476 | 357° | 22km/h | 28705m | 5.4m/s | -47.6°C | 0% | 0hPa | 2.6V | 18:12:15 | 02:01:49 | 00:00:00 | |
| DM0DOS-11 | 2026-09-02 00:52:03 | 50.68864 | 1.42477 | 356° | 20km/h | 28700m | 4.6m/s | -47.6°C | 2.9% | 0hPa | 2.5V | 08:30:00 | 02:01:48 | 00:00:00 | |
| AU51GT2 | 2026-09-02 00:52:02 | 50.68865 | 1.42477 | 356° | 18km/h | 28700m | 4.6m/s | -47.6°C | 0.5% | -1.0hPa | 2.6V | 00:00:00 | 00:00:00 | 00:00:00 | |
| BIOWL9-15 | 2026-09-02 00:52:01 | 50.68855 | 1.42480 | 338° | 18km/h | 28689m | 6.2m/s | -47.7°C | 0.5% | -1.0hPa | 2.6V | 00:00:00 | 00:00:00 | 00:00:00 | |
| HTAHTA | 2026-09-02 00:52:00 | 50.68855 | 1.42480 | 338° | 18km/h | 28689m | 6.2m/s | -47.7°C | 0.5% | -1.0hPa | 2.6V | 00:00:00 | 00:00:00 | 00:00:00 | |
| DB0UT-7 | 2026-09-02 00:51:54 | 50.68843 | 1.42502 | 296° | 13km/h | 28655m | 5.0m/s | -47.7°C | 2.9% | 0hPa | 2.6V | 00:00:00 | 02:01:40 | 00:00:00 | |
| DM0DOS-11 | 2026-09-02 00:51:53 | 50.68835 | 1.42520 | 313° | 24km/h | 28637m | 5.4m/s | -47.9°C | 2.9% | 0hPa | 2.6V | 08:30:00 | 02:01:37 | 00:00:00 | |
| BIOWL1-15 | 2026-09-02 00:51:53 | 50.68823 | 1.42536 | 324° | 16km/h | 28620m | 4.9m/s | -48°C | 0% | 0hPa | 2.5V | 18:12:15 | 02:01:34 | 00:00:00 | |
| DJ2DS-15 | 2026-09-02 00:51:46 | 50.68817 | 1.42545 | 309° | 15km/h | 28609m | 6.4m/s | -47.9°C | 0.5% | -1.0hPa | 2.6V | 00:00:00 | 00:00:00 | 00:00:00 | |
| DM0DOS-11 | 2026-09-02 00:51:42 | 50.68817 | 1.42565 | 222° | 11km/h | 28581m | 4.3m/s | -47.9°C | 3% | 0hPa | 2.6V | 08:30:00 | 02:01:27 | 00:00:00 | |
| BIOWL1-15 | 2026-09-02 00:51:40 | 50.68821 | 1.42573 | 253° | 16km/h | 28570m | 6.5m/s | -48°C | 0% | 0hPa | 2.5V | 18:12:15 | 02:01:25 | 00:00:00 | |
| DM0DOS-11 | 2026-09-02 00:51:32 | 50.68814 | 1.42613 | 330° | 11km/h | 28525m | 6.3m/s | -47.9°C | 2.9% | 0hPa | 2.6V | 08:30:00 | 02:01:17 | 00:00:00 | |
| BIOWL1-15 | 2026-09-02 00:51:30 | 50.68811 | 1.42616 | 325° | 11km/h | 28519m | 5.3m/s | -47.9°C | 0% | 0hPa | 2.6V | 18:12:15 | 02:01:16 | 00:00:00 | |
| HTAHTA | 2026-09-02 00:51:29 | 50.68809 | 1.42618 | 320° | 9km/h | 28514m | 5.1m/s | -47.9°C | 0.5% | -1.0hPa | 2.5V | 00:00:00 | 00:00:00 | 00:00:00 | |
| DB0UT-7 | 2026-09-02 00:51:24 | 50.68810 | 1.42631 | 258° | 18km/h | 28486m | 6.4m/s | -48.0°C | 3.0% | 0hPa | 2.5V | 00:00:00 | 00:00:00 | 00:00:00 | |
| DM0DOS-11 | 2026-09-02 00:51:22 | 50.68811 | 1.42650 | 268° | 15km/h | 28469m | 5.8m/s | -48.1°C | 3% | 0hPa | 2.6V | 08:30:00 | 02:01:07 | 00:00:00 | |
| DM0DOS-11 | 2026-09-02 00:51:12 | 50.68807 | 1.42655 | 144° | 7km/h | 28411m | 4.9m/s | -47.9°C | 2.9% | 0hPa | 2.6V | 08:30:00 | 02:00:57 | 00:00:00 | |
| DJ2DS-15 | 2026-09-02 00:51:10 | 50.68808 | 1.42654 | 145° | 4km/h | 28406m | 5.9m/s | -47.8°C | 0.5% | -1.0hPa | 2.6V | 00:00:00 | 00:00:00 | 00:00:00 | |
| DM0DOS-11 | 2026-09-02 00:51:02 | 50.68804 | 1.42656 | 343° | 7km/h | 28354m | 6.1m/s | -47.8°C | 3% | 0hPa | 2.6V | 08:30:00 | 02:00:47 | 00:00:00 | |
| DO1YAY-16 | 2026-09-02 00:51:02 | 50.68804 | 1.42656 | 343° | 5km/h | 28355m | 6.1m/s | -47.8°C | 0.6% | -1.0hPa | 2.5V | 00:00:00 | 00:00:00 | 00:00:00 | |
| AU51GT2 | 2026-09-02 00:51:00 | 50.68802 | 1.42657 | 355° | 7km/h | 28349m | 5.5m/s | -47.8°C | 0.5% | -1.0hPa | 2.5V | 00:00:00 | 00:00:00 | 00:00:00 | |
| HTAHTA | 2026-09-02 00:50:58 | 50.68796 | 1.42652 | 59° | 9km/h | 28331m | 5.2m/s | -47.8°C | 0.5% | -1.0hPa | 2.5V | 00:00:00 | 00:00:00 | 00:00:00 | |
| DM0DOS-11 | 2026-09-02 00:50:56 | 50.68786 | 1.42645 | 326° | 7km/h | 28296m | 6.2m/s | -47.8°C | 3% | 0hPa | 2.5V | 08:30:00 | 02:00:37 | 00:00:00 | |
| DM0DOS-11 | 2026-09-02 00:50:46 | 50.68770 | 1.42635 | 41° | 13km/h | 28237m | 4.9m/s | -47.6°C | 3% | 0hPa | 2.5V | 08:30:00 | 02:00:27 | 00:00:00 | |
| BIOWL1-15 | 2026-09-02 00:50:44 | 50.68774 | 1.42642 | 48° | 13km/h | 28248m | 6.4m/s | -47.6°C | 0% | 0hPa | 2.6V | 18:12:15 | 02:00:29 | 00:00:00 | |
| DM0DOS-11 | 2026-09-02 00:50:36 | 50.68735 | 1.42648 | 2° | 22km/h | 28178m | 6.2m/s | -47.5°C | 2.9% | 0hPa | 2.5V | 08:30:00 | 02:00:17 | 00:00:00 | |
| BIOWL1-15 | 2026-09-02 00:50:33 | 50.68740 | 1.42647 | 355° | 18km/h | 28185m | 7.2m/s | -47.5°C | 0% | 0hPa | 2.6V | 18:12:15 | 02:00:18 | 00:00:00 | |
| DO1YAY-16 | 2026-09-02 00:50:30 | 50.68729 | 1.42647 | 8° | 22km/h | 28172m | 5.7m/s | -47.5°C | 0.5% | -1.0hPa | 2.5V | 00:00:00 | 00:00:00 | 00:00:00 | |
| AU51GT2 | 2026-09-02 00:50:29 | 50.68724 | 1.42645 | 17° | 20km/h | 28166m | 6.4m/s | -47.4°C | 0.5% | -1.0hPa | 2.5V | 00:00:00 | 00:00:00 | 00:00:00 | |
| HTAHTA | 2026-09-02 00:50:27 | 50.68713 | 1.42637 | 8° | 11km/h | 28149m | 5.1m/s | -47.4°C | 0.5% | -1.0hPa | 2.5V | 00:00:00 | 00:00:00 | 00:00:00 | |
| DM0DOS-11 | 2026-09-02 00:50:26 | 50.68695 | 1.42660 | 313° | 22km/h | 28118m | 6.7m/s | -47.3°C | 2.9% | 0hPa | 2.5V | 08:30:00 | 02:00:07 | 00:00:00 | |
| BIOWL1-15 | 2026-09-02 00:50:20 | 50.68620 | 1.42689 | 319° | 22km/h | 28034m | 6.6m/s | -47.1°C | 0% | 0hPa | 2.5V | 18:12:15 | 01:59:53 | 00:00:00 | |
| DM0DOS-11 | 2026-09-02 00:50:13 | 50.68641 | 1.42671 | 354° | 22km/h | 28057m | 6.4m/s | -47.2°C | 2.9% | 0hPa | 2.6V | 08:30:00 | 01:59:57 | 00:00:00 | |
| BIOWL1-15 | 2026-09-02 00:50:08 | 50.68608 | 1.42702 | 332° | 18km/h | 28015m | 6.4m/s | -47°C | 0% | 0hPa | 2.6V | 18:12:15 | 01:59:50 | 00:00:00 | |
| DM0DOS-11 | 2026-09-02 00:50:02 | 50.68594 | 1.42712 | 344° | 18km/h | 27997m | 6.1m/s | -47°C | 2.8% | 0hPa | 2.5V | 08:30:00 | 01:59:47 | 00:00:00 | |
| BIOWL1-15 | 2026-09-02 00:49:53 | 50.68559 | 1.42748 | 312° | 15km/h | 27922m | 6.3m/s | -47°C | 0% | 0hPa | 2.6V | 18:12:15 | 01:59:35 | 00:00:00 | |
| DM0DOS-11 | 2026-09-02 00:49:52 | 50.68552 | 1.42756 | 331° | 16km/h | 27910m | 6.7m/s | -47°C | 2.9% | 0hPa | 2.5V | 08:30:00 | 01:59:33 | 00:00:00 | |
| DM0DOS-11 | 2026-09-02 00:49:43 | 50.68487 | 1.42829 | 314° | 18km/h | 27792m | 5.2m/s | -46.7°C | 2.9% | 0hPa | 2.6V | 08:30:00 | 01:59:14 | 00:00:00 | |
| BIOWL1-15 | 2026-09-02 00:49:42 | 50.68475 | 1.42857 | 337° | 13km/h | 27729m | 6.1m/s | -46.3°C | 0% | 0hPa | 2.5V | 18:12:15 | 01:59:04 | 00:00:00 | |
| DB0UT-7 | 2026-09-02 00:49:41 | 50.68525 | 1.42777 | 321° | 15km/h | 27873m | 5.4m/s | -46.9°C | 2.8% | 0hPa | 2.6V | 00:00:00 | 00:00:00 | 00:00:00 | |
| DM0DOS-11 | 2026-09-02 00:49:37 | 50.68472 | 1.42860 | 333° | 15km/h | 27722m | 5.9m/s | -46.2°C | 2.8% | 0hPa | 2.6V | 08:30:00 | 01:59:03 | 00:00:00 | |
| BIOWL1-15 | 2026-09-02 00:49:31 | 50.68472 | 1.42860 | 334° | 15km/h | 27722m | 5.9m/s | -46.2°C | 0% | 0hPa | 2.6V | 18:12:15 | 01:59:03 | 00:00:00 | |
| DO1YAY-16 | 2026-09-02 00:49:28 | 50.68487 | 1.42829 | 314° | 18km/h | 27792m | 5.3m/s | -46.7°C | 0.5% | -1.0hPa | 2.6V | 00:00:00 | 00:00:00 | 00:00:00 | |
| AU51GT2 | 2026-09-02 00:49:27 | 50.68484 | 1.42834 | 314° | 15km/h | 27786m | 5.9m/s | -46.7°C | 0.5% | -1.0hPa | 2.6V | 00:00:00 | 00:00:00 | 00:00:00 | |
| HTAHTA | 2026-09-02 00:49:25 | 50.68480 | 1.42840 | 278° | 2km/h | 27767m | 5.8m/s | -46.5°C | 0.5% | -1.0hPa | 2.6V | 00:00:00 | 00:00:00 | 00:00:00 | |
| BIOWL1-15 | 2026-09-02 00:49:12 | 50.68472 | 1.42910 | 177° | 20km/h | 27591m | 7.3m/s | -46.2°C | 0% | 0hPa | 2.6V | 18:12:15 | 01:58:42 | 00:00:00 | |
| BIOWL1-15 | 2026-09-02 00:49:05 | 50.68476 | 1.42910 | 188° | 20km/h | 27584m | 5.9m/s | -46.2°C | 0% | 0hPa | 2.5V | 18:12:15 | 01:58:41 | 00:00:00 | |
| DM0DOS-11 | 2026-09-02 00:49:03 | 50.68460 | 1.42907 | 291° | 11km/h | 27623m | 5.2m/s | -46.1°C | 2.7% | 0hPa | 2.6V | 08:30:00 | 01:58:47 | 00:00:00 | |
| DO1YAY-16 | 2026-09-02 00:48:57 | 50.68467 | 1.42910 | 170° | 16km/h | 27598m | 6.0m/s | -46.2°C | 0.5% | -1.0hPa | 2.6V | 00:00:00 | 00:00:00 | 00:00:00 | |
| DM0DOS-11 | 2026-09-02 00:48:56 | 50.68490 | 1.42915 | 181° | 5km/h | 27560m | 5.8m/s | -46.4°C | 2.6% | 0hPa | 2.6V | 08:30:00 | 01:58:37 | 00:00:00 | |
| BIOWL1-15 | 2026-09-02 00:48:44 | 50.68501 | 1.42924 | 164° | 16km/h | 27517m | 6.1m/s | -47°C | 0% | 0hPa | 2.6V | 18:12:15 | 01:58:30 | 00:00:00 | |
| DM0DOS-11 | 2026-09-02 00:48:43 | 50.68516 | 1.42919 | 179° | 22km/h | 27498m | 6m/s | -47.1°C | 2.9% | 0hPa | 2.5V | 08:30:00 | 01:58:27 | 00:00:00 | |
| DM0DOS-11 | 2026-09-02 00:48:36 | 50.68546 | 1.42911 | 114° | 15km/h | 27437m | 6.2m/s | -47°C | 2.9% | 0hPa | 2.5V | 08:30:00 | 01:58:17 | 00:00:00 | |
| BIOWL1-15 | 2026-09-02 00:48:34 | 50.68548 | 1.42905 | 117° | 16km/h | 27431m | 5.6m/s | -47°C | 0% | 0hPa | 2.5V | 18:12:15 | 01:58:16 | 00:00:00 | |
| BIOWL1-15 | 2026-09-02 00:48:28 | 50.68556 | 1.42885 | 57° | 5km/h | 27389m | 5.3m/s | -47°C | 0% | 0hPa | 2.6V | 18:12:15 | 01:58:09 | 00:00:00 | |
| DO1YAY-16 | 2026-09-02 00:48:26 | 50.68555 | 1.42891 | 139° | 5km/h | 27407m | 5.8m/s | -47.1°C | 0.5% | -1.0hPa | 2.6V | 00:00:00 | 00:00:00 | 00:00:00 | |
| DM0DOS-11 | 2026-09-02 00:48:25 | 50.68555 | 1.42885 | 258° | 2km/h | 27376m | 7m/s | -47°C | 2.8% | 0hPa | 2.6V | 08:30:00 | 01:58:07 | 00:00:00 | |
| AU51GT2 | 2026-09-02 00:48:25 | 50.68556 | 1.42890 | 110° | 4km/h | 27401m | 6.8m/s | -47.0°C | 0.5% | -1.0hPa | 2.6V | 00:00:00 | 00:00:00 | 00:00:00 | |
| HTAHTA | 2026-09-02 00:48:23 | 50.68556 | 1.42886 | 225° | 4km/h | 27370m | 5.9m/s | -47.0°C | 0.5% | -1.0hPa | 2.6V | 00:00:00 | 00:00:00 | 00:00:00 | |
| DM0DOS-11 | 2026-09-02 00:48:13 | 50.68567 | 1.42871 | 59° | 11km/h | 27318m | 7.1m/s | -46.9°C | 2.8% | 0hPa | 2.6V | 08:30:00 | 01:57:57 | 00:00:00 | |
| BIOWL1-15 | 2026-09-02 00:48:10 | 50.68564 | 1.42867 | 51° | 18km/h | 27311m | 6.8m/s | -46.9°C | 0% | 0hPa | 2.6V | 18:12:15 | 01:57:56 | 00:00:00 | |
| DJ2DS-15 | 2026-09-02 00:48:10 | 50.68561 | 1.42860 | 48° | 22km/h | 27305m | 5.6m/s | -46.9°C | 0.5% | -1.0hPa | 2.6V | 00:00:00 | 00:00:00 | 00:00:00 | |
| DM0DOS-11 | 2026-09-02 00:48:07 | 50.68552 | 1.42823 | 93° | 13km/h | 27257m | 5.4m/s | -46.9°C | 2.8% | 0hPa | 2.6V | 08:30:00 | 01:57:47 | 00:00:00 | |
| BIOWL1-15 | 2026-09-02 00:48:00 | 50.68538 | 1.42794 | 28° | 20km/h | 27215m | 6m/s | -47.2°C | 0% | 0hPa | 2.5V | 18:12:15 | 01:57:40 | 00:00:00 | |
| DO1YAY-16 | 2026-09-02 00:47:55 | 50.68543 | 1.42799 | 33° | 20km/h | 27220m | 5.2m/s | -47.2°C | 0.5% | -1.0hPa | 2.5V | 00:00:00 | 00:00:00 | 00:00:00 | |
| AU51GT2 | 2026-09-02 00:47:54 | 50.68534 | 1.42791 | 22° | 16km/h | 27209m | 6.5m/s | -47.3°C | 0.5% | -1.0hPa | 2.5V | 00:00:00 | 00:00:00 | 00:00:00 | |
| HTAHTA | 2026-09-02 00:47:52 | 50.68526 | 1.42785 | 42° | 7km/h | 27192m | 6.1m/s | -47.4°C | 0.5% | -1.0hPa | 2.5V | 00:00:00 | 00:00:00 | 00:00:00 | |
| DM0DOS-11 | 2026-09-02 00:47:49 | 50.68524 | 1.42767 | 114° | 5km/h | 27163m | 6.5m/s | -47.5°C | 2.9% | 0hPa | 2.5V | 08:30:00 | 01:57:31 | 00:00:00 | |
| BIOWL1-15 | 2026-09-02 00:47:47 | 50.68523 | 1.42774 | 82° | 13km/h | 27174m | 4.8m/s | -47.5°C | 0% | 0hPa | 2.5V | 18:12:15 | 01:57:33 | 00:00:00 | |
| DM0DOS-11 | 2026-09-02 00:47:38 | 50.68508 | 1.42763 | 351° | 2km/h | 27106m | 6m/s | -47.8°C | 2.9% | 0hPa | 2.5V | 08:30:00 | 01:57:21 | 00:00:00 | |
| BIOWL1-15 | 2026-09-02 00:47:37 | 50.68508 | 1.42763 | 69° | 2km/h | 27100m | 6.8m/s | -47.8°C | 0% | 0hPa | 2.5V | 18:12:15 | 01:57:20 | 00:00:00 | |
| DM0DOS-11 | 2026-09-02 00:47:26 | 50.68495 | 1.42784 | 319° | 24km/h | 27047m | 5.3m/s | -47.9°C | 2.9% | 0hPa | 2.5V | 08:30:00 | 01:57:11 | 00:00:00 | |
| BIOWL1-15 | 2026-09-02 00:47:24 | 50.68481 | 1.42804 | 16° | 7km/h | 27019m | 6.5m/s | -48°C | 0% | 0hPa | 2.6V | 18:12:15 | 01:57:06 | 00:00:00 | |
| AU51GT2 | 2026-09-02 00:47:23 | 50.68488 | 1.42796 | 310° | 18km/h | 27036m | 5.4m/s | -48.0°C | 0.5% | -1.0hPa | 2.6V | 00:00:00 | 00:00:00 | 00:00:00 | |
| HTAHTA | 2026-09-02 00:47:21 | 50.68481 | 1.42804 | 15° | 5km/h | 27019m | 6.5m/s | -48.0°C | 0.5% | -1.0hPa | 2.6V | 00:00:00 | 00:00:00 | 00:00:00 | |
| DM0DOS-11 | 2026-09-02 00:47:20 | 50.68483 | 1.42794 | 152° | 5km/h | 26989m | 5.5m/s | -48.1°C | 3% | 0hPa | 2.6V | 08:30:00 | 01:57:01 | 00:00:00 | |
| BIOWL1-15 | 2026-09-02 00:47:10 | 50.68476 | 1.42809 | 1° | 5km/h | 26932m | 4.7m/s | -48°C | 0% | 0hPa | 2.6V | 18:12:15 | 01:56:51 | 00:00:00 | |
| DM0DOS-11 | 2026-09-02 00:47:09 | 50.68476 | 1.42809 | 0° | 5km/h | 26932m | 4.7m/s | -48°C | 3% | 0hPa | 2.6V | 08:30:00 | 01:56:51 | 00:00:00 | |
| BIOWL1-15 | 2026-09-02 00:46:58 | 50.68465 | 1.42862 | 272° | 4km/h | 26857m | 4.7m/s | -47.8°C | 0% | 0hPa | 2.6V | 18:12:15 | 01:56:38 | 00:00:00 | |
| DM0DOS-11 | 2026-09-02 00:46:58 | 50.68465 | 1.42849 | 270° | 18km/h | 26875m | 5.2m/s | -47.8°C | 3% | 0hPa | 2.6V | 08:30:00 | 01:56:41 | 00:00:00 | |
| DO1YAY-16 | 2026-09-02 00:46:53 | 50.68465 | 1.42860 | 274° | 7km/h | 26863m | 6.0m/s | -47.8°C | 0.6% | -1.0hPa | 2.5V | 00:00:00 | 00:00:00 | 00:00:00 | |
| AU51GT2 | 2026-09-02 00:46:52 | 50.68465 | 1.42863 | 245° | 2km/h | 26853m | 4.9m/s | -47.8°C | 0.6% | -1.0hPa | 2.5V | 00:00:00 | 00:00:00 | 00:00:00 | |
| BIOWL9-15 | 2026-09-02 00:46:50 | 50.68465 | 1.42865 | 238° | 5km/h | 26847m | 6.6m/s | -47.8°C | 0.6% | -1.0hPa | 2.5V | 00:00:00 | 00:00:00 | 00:00:00 | |
| HTAHTA | 2026-09-02 00:46:49 | 50.68466 | 1.42868 | 238° | 9km/h | 26841m | 6.0m/s | -47.9°C | 0.5% | -1.0hPa | 2.5V | 00:00:00 | 00:00:00 | 00:00:00 | |
| DM0DOS-11 | 2026-09-02 00:46:46 | 50.68467 | 1.42886 | 284° | 16km/h | 26817m | 4.8m/s | -48°C | 3% | 0hPa | 2.5V | 08:30:00 | 01:56:31 | 00:00:00 | |
| BIOWL1-15 | 2026-09-02 00:46:45 | 50.68468 | 1.42886 | 285° | 16km/h | 26817m | 4.8m/s | -48°C | 0% | 0hPa | 2.5V | 18:12:15 | 01:56:31 | 00:00:00 | |
| DM0DOS-11 | 2026-09-02 00:46:40 | 50.68456 | 1.42972 | 256° | 16km/h | 26760m | 4.6m/s | -47.8°C | 3% | 0hPa | 2.5V | 08:30:00 | 01:56:21 | 00:00:00 | |
| BIOWL1-15 | 2026-09-02 00:46:34 | 50.68457 | 1.42978 | 259° | 15km/h | 26754m | 6.1m/s | -47.8°C | 0% | 0hPa | 2.5V | 18:12:15 | 01:56:20 | 00:00:00 | |
| DM0DOS-11 | 2026-09-02 00:46:28 | 50.68462 | 1.43045 | 266° | 16km/h | 26704m | 5.5m/s | -47.8°C | 2.9% | 0hPa | 2.6V | 08:30:00 | 01:56:11 | 00:00:00 | |
| BIOWL1-15 | 2026-09-02 00:46:24 | 50.68469 | 1.43066 | 226° | 9km/h | 26676m | 6.8m/s | -47.7°C | 0% | 0hPa | 2.5V | 18:12:15 | 01:56:06 | 00:00:00 | |
| DO1YAY-16 | 2026-09-02 00:46:22 | 50.68467 | 1.43064 | 221° | 9km/h | 26682m | 4.4m/s | -47.8°C | 0.5% | -1.0hPa | 2.5V | 00:00:00 | 00:00:00 | 00:00:00 | |
| AU51GT2 | 2026-09-02 00:46:21 | 50.68469 | 1.43066 | 226° | 7km/h | 26676m | 6.8m/s | -47.7°C | 0.5% | -1.0hPa | 2.5V | 00:00:00 | 00:00:00 | 00:00:00 | |
| BIOWL9-15 | 2026-09-02 00:46:19 | 50.68470 | 1.43069 | 234° | 7km/h | 26670m | 5.6m/s | -47.7°C | 0.5% | -1.0hPa | 2.5V | 00:00:00 | 00:00:00 | 00:00:00 | |
| HTAHTA | 2026-09-02 00:46:18 | 50.68472 | 1.43072 | 237° | 11km/h | 26665m | 5.2m/s | -47.7°C | 0.6% | -1.0hPa | 2.5V | 00:00:00 | 00:00:00 | 00:00:00 | |
| DM0DOS-11 | 2026-09-02 00:46:15 | 50.68479 | 1.43090 | 241° | 24km/h | 26647m | 5m/s | -47.7°C | 2.9% | 0hPa | 2.5V | 08:30:00 | 01:56:01 | 00:00:00 | |
| DM0DOS-11 | 2026-09-02 00:46:10 | 50.68513 | 1.43119 | 162° | 16km/h | 26592m | 4.3m/s | -47.8°C | 2.9% | 0hPa | 2.5V | 08:30:00 | 01:55:51 | 00:00:00 | |
| BIOWL1-15 | 2026-09-02 00:46:10 | 50.68534 | 1.43128 | 218° | 24km/h | 26565m | 5m/s | -48°C | 0% | 0hPa | 2.5V | 18:12:15 | 01:55:46 | 00:00:00 | |
| DM0DOS-11 | 2026-09-02 00:45:58 | 50.68550 | 1.43140 | 164° | 13km/h | 26538m | 6.6m/s | -48.1°C | 2.9% | 0hPa | 2.6V | 08:30:00 | 01:55:41 | 00:00:00 | |
| BIOWL1-15 | 2026-09-02 00:45:57 | 50.68550 | 1.43140 | 165° | 13km/h | 26538m | 6.6m/s | -48.1°C | 0% | 0hPa | 2.6V | 18:12:15 | 01:55:41 | 00:00:00 | |
| DO1YAY-16 | 2026-09-02 00:45:51 | 50.68567 | 1.43129 | 145° | 15km/h | 26516m | 6.6m/s | -48.2°C | 0.6% | -1.0hPa | 2.5V | 00:00:00 | 00:00:00 | 00:00:00 | |
| AU51GT2 | 2026-09-02 00:45:50 | 50.68572 | 1.43122 | 144° | 9km/h | 26504m | 5.4m/s | -48.2°C | 0.6% | -1.0hPa | 2.5V | 00:00:00 | 00:00:00 | 00:00:00 | |
| HTAHTA | 2026-09-02 00:45:47 | 50.68576 | 1.43121 | 188° | 9km/h | 26492m | 5.5m/s | -48.2°C | 0.6% | -1.0hPa | 2.5V | 00:00:00 | 00:00:00 | 00:00:00 | |
| DM0DOS-11 | 2026-09-02 00:45:46 | 50.68582 | 1.43124 | 201° | 4km/h | 26476m | 6.1m/s | -48.2°C | 2.9% | 0hPa | 2.5V | 08:30:00 | 01:55:30 | 00:00:00 | |
| BIOWL1-15 | 2026-09-02 00:45:39 | 50.68587 | 1.43087 | 32° | 7km/h | 26407m | 5.5m/s | -48.9°C | 0% | 0hPa | 2.6V | 18:12:15 | 01:55:18 | 00:00:00 | |
| DM0DOS-11 | 2026-09-02 00:45:35 | 50.68589 | 1.43090 | 90° | 5km/h | 26419m | 4.8m/s | -48.8°C | 3% | 0hPa | 2.5V | 08:30:00 | 01:55:20 | 00:00:00 | |
| DM0DOS-11 | 2026-09-02 00:45:28 | 50.68581 | 1.43061 | 53° | 20km/h | 26363m | 5.4m/s | -49.1°C | 3.1% | 0hPa | 2.5V | 08:30:00 | 01:55:10 | 00:00:00 | |
| BIOWL1-15 | 2026-09-02 00:45:21 | 50.68572 | 1.43044 | 42° | 15km/h | 26346m | 4.8m/s | -49.1°C | 0% | 0hPa | 2.5V | 18:12:15 | 01:55:07 | 00:00:00 | |
| DO1YAY-16 | 2026-09-02 00:45:20 | 50.68569 | 1.43041 | 22° | 13km/h | 26341m | 4.7m/s | -49.1°C | 0.6% | -1.0hPa | 2.5V | 00:00:00 | 00:00:00 | 00:00:00 | |
| AU51GT2 | 2026-09-02 00:45:19 | 50.68561 | 1.43039 | 357° | 16km/h | 26329m | 5.6m/s | -49.2°C | 0.6% | -1.0hPa | 2.5V | 00:00:00 | 00:00:00 | 00:00:00 | |
| BIOWL9-15 | 2026-09-02 00:45:17 | 50.68556 | 1.43040 | 352° | 16km/h | 26324m | 5.4m/s | -49.2°C | 0.6% | -1.0hPa | 2.5V | 00:00:00 | 00:00:00 | 00:00:00 | |
| DM0DOS-11 | 2026-09-02 00:45:16 | 50.68547 | 1.43042 | 11° | 9km/h | 26307m | 4.6m/s | -49.3°C | 3.1% | 0hPa | 2.5V | 08:30:00 | 01:55:00 | 00:00:00 | |
| BIOWL1-15 | 2026-09-02 00:45:11 | 50.68520 | 1.43011 | 15° | 13km/h | 26263m | 6.3m/s | -49.5°C | 0% | 0hPa | 2.5V | 18:12:15 | 01:54:52 | 00:00:00 | |
| DJ2DS-15 | 2026-09-02 00:45:09 | 50.68529 | 1.43022 | 47° | 18km/h | 26279m | 6.0m/s | -49.4°C | 0.6% | -1.0hPa | 2.6V | 00:00:00 | 00:00:00 | 00:00:00 | |
| DM0DOS-11 | 2026-09-02 00:45:08 | 50.68514 | 1.43012 | 328° | 15km/h | 26252m | 5m/s | -49.5°C | 3.2% | 0hPa | 2.6V | 08:30:00 | 01:54:50 | 00:00:00 | |
| BIOWL1-15 | 2026-09-02 00:45:00 | 50.68508 | 1.43037 | 297° | 11km/h | 26225m | 5.7m/s | -49.6°C | 0% | 0hPa | 2.6V | 18:12:15 | 01:54:45 | 00:00:00 | |
| DM0DOS-11 | 2026-09-02 00:44:55 | 50.68498 | 1.43037 | 61° | 7km/h | 26196m | 5.1m/s | -49.8°C | 3.2% | 0hPa | 2.6V | 08:30:00 | 01:54:40 | 00:00:00 | |
| BIOWL1-15 | 2026-09-02 00:44:49 | 50.68495 | 1.43038 | 250° | 11km/h | 26170m | 6.3m/s | -49.8°C | 0% | 0hPa | 2.5V | 18:12:15 | 01:54:35 | 00:00:00 | |
| DM0DOS-11 | 2026-09-02 00:44:48 | 50.68496 | 1.43061 | 322° | 11km/h | 26143m | 4.2m/s | -49.9°C | 3.2% | 0hPa | 2.5V | 08:30:00 | 01:54:30 | 00:00:00 | |
| AU51GT2 | 2026-09-02 00:44:48 | 50.68498 | 1.43048 | 250° | 13km/h | 26159m | 5.0m/s | -49.8°C | 0.6% | -1.0hPa | 2.5V | 00:00:00 | 00:00:00 | 00:00:00 | |
| BIOWL9-15 | 2026-09-02 00:44:46 | 50.68499 | 1.43053 | 267° | 11km/h | 26154m | 6.0m/s | -49.9°C | 0.6% | -1.0hPa | 2.5V | 00:00:00 | 00:00:00 | 00:00:00 | |
| HTAHTA | 2026-09-02 00:44:45 | 50.68498 | 1.43058 | 298° | 11km/h | 26148m | 5.3m/s | -49.9°C | 0.6% | -1.0hPa | 2.5V | 00:00:00 | 00:00:00 | 00:00:00 | |
| BIOWL1-15 | 2026-09-02 00:44:43 | 50.68488 | 1.43075 | 299° | 11km/h | 26116m | 6.3m/s | -50°C | 0% | 0hPa | 2.5V | 18:12:15 | 01:54:25 | 00:00:00 | |
| DM0DOS-11 | 2026-09-02 00:44:35 | 50.68481 | 1.43092 | 273° | 11km/h | 26088m | 5.9m/s | -50.1°C | 3.2% | 0hPa | 2.5V | 08:30:00 | 01:54:20 | 00:00:00 | |
| BIOWL1-15 | 2026-09-02 00:44:28 | 50.68472 | 1.43132 | 287° | 11km/h | 26038m | 5.5m/s | -50.1°C | 0% | 0hPa | 2.6V | 18:12:15 | 01:54:11 | 00:00:00 | |
| DM0DOS-11 | 2026-09-02 00:44:28 | 50.68471 | 1.43136 | 296° | 11km/h | 26032m | 6m/s | -50.1°C | 3.3% | 0hPa | 2.6V | 08:30:00 | 01:54:10 | 00:00:00 | |
| BIOWL1-15 | 2026-09-02 00:44:18 | 50.68469 | 1.43166 | 278° | 11km/h | 25988m | 6.2m/s | -50.1°C | 0% | 0hPa | 2.5V | 18:12:15 | 01:54:02 | 00:00:00 | |
| AU51GT2 | 2026-09-02 00:44:17 | 50.68469 | 1.43166 | 277° | 9km/h | 25988m | 6.2m/s | -50.1°C | 0.6% | -1.0hPa | 2.6V | 00:00:00 | 00:00:00 | 00:00:00 | |
| DM0DOS-11 | 2026-09-02 00:44:15 | 50.68467 | 1.43176 | 297° | 16km/h | 25977m | 4.7m/s | -50.1°C | 3.3% | 0hPa | 2.6V | 08:30:00 | 01:54:00 | 00:00:00 | |
| BIOWL9-15 | 2026-09-02 00:44:15 | 50.68467 | 1.43176 | 297° | 16km/h | 25977m | 4.7m/s | -50.1°C | 0.6% | -1.0hPa | 2.5V | 00:00:00 | 00:00:00 | 00:00:00 | |
| HTAHTA | 2026-09-02 00:44:14 | 50.68467 | 1.43176 | 297° | 16km/h | 25977m | 4.7m/s | -50.1°C | 0.6% | -1.0hPa | 2.5V | 00:00:00 | 00:00:00 | 00:00:00 | |
| DM0DOS-11 | 2026-09-02 00:44:08 | 50.68455 | 1.43223 | 205° | 15km/h | 25922m | 5m/s | -50°C | 3.3% | 0hPa | 2.5V | 08:30:00 | 01:53:50 | 00:00:00 | |
| BIOWL1-15 | 2026-09-02 00:44:05 | 50.68459 | 1.43226 | 202° | 16km/h | 25917m | 4.1m/s | -50°C | 0% | 0hPa | 2.5V | 18:12:15 | 01:53:49 | 00:00:00 | |
| DJ2DS-15 | 2026-09-02 00:43:57 | 50.68469 | 1.43253 | 265° | 9km/h | 25886m | 5.4m/s | -49.9°C | 0.6% | -1.0hPa | 2.5V | 00:00:00 | 00:00:00 | 00:00:00 | |
| DM0DOS-11 | 2026-09-02 00:43:54 | 50.68470 | 1.43270 | 267° | 15km/h | 25863m | 5m/s | -49.9°C | 3.3% | 0hPa | 2.5V | 08:30:00 | 01:53:39 | 00:00:00 | |
| BIOWL1-15 | 2026-09-02 00:43:54 | 50.68470 | 1.43264 | 268° | 13km/h | 25869m | 6.6m/s | -49.9°C | 0% | 0hPa | 2.5V | 18:12:15 | 01:53:40 | 00:00:00 | |
| DM0DOS-11 | 2026-09-02 00:43:48 | 50.68474 | 1.43325 | 245° | 13km/h | 25808m | 4.6m/s | -49.8°C | 3.2% | 0hPa | 2.6V | 08:30:00 | 01:53:29 | 00:00:00 | |
| DO1YAY-16 | 2026-09-02 00:43:47 | 50.68472 | 1.43314 | 263° | 16km/h | 25820m | 5.5m/s | -49.8°C | 0.6% | -1.0hPa | 2.6V | 00:00:00 | 00:00:00 | 00:00:00 | |
| AU51GT2 | 2026-09-02 00:43:46 | 50.68472 | 1.43314 | 263° | 16km/h | 25820m | 5.5m/s | -49.8°C | 0.6% | -1.0hPa | 2.6V | 00:00:00 | 00:00:00 | 00:00:00 | |
| BIOWL1-15 | 2026-09-02 00:43:43 | 50.68474 | 1.43325 | 246° | 13km/h | 25808m | 4.6m/s | -49.8°C | 0% | 0hPa | 2.6V | 18:12:15 | 01:53:29 | 00:00:00 | |
| DM0DOS-11 | 2026-09-02 00:43:34 | 50.68478 | 1.43390 | 273° | 24km/h | 25751m | 4.6m/s | -49.5°C | 3.2% | 0hPa | 2.6V | 08:30:00 | 01:53:19 | 00:00:00 | |
| BIOWL1-15 | 2026-09-02 00:43:33 | 50.68480 | 1.43416 | 254° | 22km/h | 25734m | 5m/s | -49.5°C | 0% | 0hPa | 2.6V | 18:12:15 | 01:53:16 | 00:00:00 | |
| DM0DOS-11 | 2026-09-02 00:43:28 | 50.68494 | 1.43484 | 268° | 24km/h | 25688m | 6m/s | -49.7°C | 3.2% | 0hPa | 2.6V | 08:30:00 | 01:53:08 | 00:00:00 | |
| BIOWL1-15 | 2026-09-02 00:43:21 | 50.68493 | 1.43494 | 274° | 29km/h | 25682m | 4.9m/s | -49.7°C | 0% | 0hPa | 2.6V | 18:12:15 | 01:53:07 | 00:00:00 | |
| DB0UT-7 | 2026-09-02 00:43:21 | 50.68493 | 1.43494 | 275° | 20km/h | 25683m | 4.8m/s | -49.7°C | 3.2% | 0hPa | 2.6V | 00:00:00 | 01:53:07 | 00:00:00 | |
| DO1YAY-16 | 2026-09-02 00:43:16 | 50.68486 | 1.43552 | 285° | 22km/h | 25650m | 6.8m/s | -49.6°C | 0.6% | -1.0hPa | 2.5V | 00:00:00 | 00:00:00 | 00:00:00 | |
| DM0DOS-11 | 2026-09-02 00:43:15 | 50.68484 | 1.43570 | 275° | 24km/h | 25638m | 4.8m/s | -49.6°C | 3.1% | 0hPa | 2.5V | 08:30:00 | 01:52:59 | 00:00:00 | |
| BIOWL1-15 | 2026-09-02 00:43:10 | 50.68497 | 1.43648 | 256° | 16km/h | 25576m | 5.6m/s | -49.8°C | 0% | 0hPa | 2.5V | 18:12:15 | 01:52:48 | 00:00:00 | |
| DM0DOS-11 | 2026-09-02 00:43:08 | 50.68496 | 1.43641 | 250° | 16km/h | 25582m | 6.2m/s | -49.8°C | 3.1% | 0hPa | 2.5V | 08:30:00 | 01:52:49 | 00:00:00 | |
| BIOWL1-15 | 2026-09-02 00:42:56 | 50.68500 | 1.43684 | 240° | 13km/h | 25540m | 5.8m/s | -50°C | 0% | 0hPa | 2.5V | 18:12:15 | 01:52:42 | 00:00:00 | |
| DM0DOS-11 | 2026-09-02 00:42:55 | 50.68510 | 1.43700 | 213° | 24km/h | 25523m | 5m/s | -50.2°C | 3.3% | 0hPa | 2.6V | 08:30:00 | 01:52:39 | 00:00:00 | |
| DB0UT-7 | 2026-09-02 00:42:51 | 50.68520 | 1.43708 | 197° | 18km/h | 25511m | 5.5m/s | -50.2°C | 3.3% | 0hPa | 2.6V | 00:00:00 | 00:00:00 | 00:00:00 | |
| DM0DOS-11 | 2026-09-02 00:42:48 | 50.68554 | 1.43721 | 164° | 16km/h | 25465m | 5.4m/s | -50.2°C | 3.3% | 0hPa | 2.6V | 08:30:00 | 01:52:29 | 00:00:00 | |
| BIOWL1-15 | 2026-09-02 00:42:45 | 50.68550 | 1.43722 | 168° | 16km/h | 25470m | 6.1m/s | -50.2°C | 0% | 0hPa | 2.6V | 18:12:15 | 01:52:30 | 00:00:00 | |
| DO1YAY-16 | 2026-09-02 00:42:45 | 50.68550 | 1.43722 | 167° | 15km/h | 25471m | 6.1m/s | -50.2°C | 0.6% | -1.0hPa | 2.5V | 00:00:00 | 00:00:00 | 00:00:00 | |
| AU51GT2 | 2026-09-02 00:42:43 | 50.68554 | 1.43721 | 164° | 15km/h | 25465m | 5.4m/s | -50.2°C | 0.7% | -1.0hPa | 2.5V | 00:00:00 | 00:00:00 | 00:00:00 | |
| BIOWL9-15 | 2026-09-02 00:42:42 | 50.68562 | 1.43719 | 179° | 15km/h | 25453m | 5.4m/s | -50.2°C | 0.7% | -1.0hPa | 2.5V | 00:00:00 | 00:00:00 | 00:00:00 | |
| HTAHTA | 2026-09-02 00:42:41 | 50.68562 | 1.43719 | 179° | 15km/h | 25453m | 5.4m/s | -50.2°C | 0.7% | -1.0hPa | 2.5V | 00:00:00 | 00:00:00 | 00:00:00 | |
| DM0DOS-11 | 2026-09-02 00:42:36 | 50.68599 | 1.43711 | 177° | 20km/h | 25405m | 4.8m/s | -50.1°C | 3.3% | 0hPa | 2.5V | 08:30:00 | 01:52:19 | 00:00:00 | |
| BIOWL1-15 | 2026-09-02 00:42:35 | 50.68599 | 1.43711 | 178° | 20km/h | 25405m | 4.8m/s | -50.1°C | 0% | 0hPa | 2.5V | 18:12:15 | 01:52:19 | 00:00:00 | |
| DM0DOS-11 | 2026-09-02 00:42:25 | 50.68655 | 1.43666 | 147° | 29km/h | 25344m | 6.2m/s | -50°C | 3.2% | 0hPa | 2.6V | 08:30:00 | 01:52:09 | 00:00:00 | |
| BIOWL1-15 | 2026-09-02 00:42:25 | 50.68643 | 1.43680 | 145° | 29km/h | 25356m | 6.8m/s | -50°C | 0% | 0hPa | 2.6V | 18:12:15 | 01:52:11 | 00:00:00 | |
| DM0DOS-11 | 2026-09-02 00:42:18 | 50.68703 | 1.43624 | 119° | 26km/h | 25283m | 6m/s | -50°C | 3.2% | 0hPa | 2.6V | 08:30:00 | 01:51:59 | 00:00:00 | |
| BIOWL1-15 | 2026-09-02 00:42:14 | 50.68723 | 1.43580 | 137° | 26km/h | 25254m | 6m/s | -50.1°C | 0% | 0hPa | 2.6V | 18:12:15 | 01:51:54 | 00:00:00 | |
| AU51GT2 | 2026-09-02 00:42:12 | 50.68706 | 1.43615 | 118° | 27km/h | 25278m | 5.2m/s | -50.1°C | 0.6% | -1.0hPa | 2.6V | 00:00:00 | 00:00:00 | 00:00:00 | |
| BIOWL9-15 | 2026-09-02 00:42:11 | 50.68714 | 1.43595 | 128° | 27km/h | 25265m | 5.9m/s | -50.0°C | 0.6% | -1.0hPa | 2.6V | 00:00:00 | 00:00:00 | 00:00:00 | |
| HTAHTA | 2026-09-02 00:42:10 | 50.68719 | 1.43587 | 134° | 26km/h | 25260m | 5.8m/s | -50.1°C | 0.7% | -1.0hPa | 2.6V | 00:00:00 | 00:00:00 | 00:00:00 | |
| DM0DOS-11 | 2026-09-02 00:42:05 | 50.68744 | 1.43554 | 156° | 18km/h | 25223m | 5.2m/s | -50.1°C | 3.3% | 0hPa | 2.6V | 08:30:00 | 01:51:49 | 00:00:00 | |
| BIOWL1-15 | 2026-09-02 00:42:05 | 50.68744 | 1.43554 | 157° | 18km/h | 25223m | 5.2m/s | -50.1°C | 0% | 0hPa | 2.6V | 18:12:15 | 01:51:49 | 00:00:00 | |
| DM0DOS-11 | 2026-09-02 00:41:58 | 50.68781 | 1.43483 | 123° | 20km/h | 25162m | 6.2m/s | -50°C | 3.2% | 0hPa | 2.5V | 08:30:00 | 01:51:39 | 00:00:00 | |
| BIOWL1-15 | 2026-09-02 00:41:54 | 50.68784 | 1.43477 | 125° | 18km/h | 25157m | 5.3m/s | -49.9°C | 0% | 0hPa | 2.5V | 18:12:15 | 01:51:38 | 00:00:00 | |
| DM0DOS-11 | 2026-09-02 00:41:48 | 50.68796 | 1.43435 | 112° | 18km/h | 25102m | 6m/s | -49.9°C | 3.2% | 0hPa | 2.6V | 08:30:00 | 01:51:29 | 00:00:00 | |
| BIOWL1-15 | 2026-09-02 00:41:43 | 50.68800 | 1.43420 | 110° | 22km/h | 25092m | 6.2m/s | -50°C | 0% | 0hPa | 2.5V | 18:12:15 | 01:51:27 | 00:00:00 | |
| DO1YAY-16 | 2026-09-02 00:41:43 | 50.68798 | 1.43428 | 114° | 20km/h | 25097m | 4.8m/s | -50.0°C | 0.6% | -1.0hPa | 2.6V | 00:00:00 | 00:00:00 | 00:00:00 | |
| AU51GT2 | 2026-09-02 00:41:41 | 50.68800 | 1.43420 | 109° | 22km/h | 25092m | 6.2m/s | -50.0°C | 0.7% | -1.0hPa | 2.6V | 00:00:00 | 00:00:00 | 00:00:00 | |
| BIOWL9-15 | 2026-09-02 00:41:40 | 50.68802 | 1.43401 | 97° | 24km/h | 25080m | 5.1m/s | -50.0°C | 0.7% | -1.0hPa | 2.6V | 00:00:00 | 00:00:00 | 00:00:00 | |
| HTAHTA | 2026-09-02 00:41:39 | 50.68803 | 1.43391 | 98° | 22km/h | 25074m | 5.5m/s | -50.0°C | 0.6% | -1.0hPa | 2.6V | 00:00:00 | 00:00:00 | 00:00:00 | |
| DB0UT-7 | 2026-09-02 00:41:38 | 50.68803 | 1.43391 | 99° | 13km/h | 25074m | 5.4m/s | -50.0°C | 3.2% | 0hPa | 2.6V | 00:00:00 | 01:51:24 | 00:00:00 | |
| DM0DOS-11 | 2026-09-02 00:41:35 | 50.68809 | 1.43358 | 84° | 15km/h | 25043m | 6.7m/s | -50°C | 3.2% | 0hPa | 2.6V | 08:30:00 | 01:51:19 | 00:00:00 | |
| BIOWL1-15 | 2026-09-02 00:41:31 | 50.68810 | 1.43301 | 81° | 11km/h | 24965m | 5.4m/s | -50.1°C | 0% | 0hPa | 2.6V | 18:12:15 | 01:51:06 | 00:00:00 | |
| DM0DOS-11 | 2026-09-02 00:41:28 | 50.68807 | 1.43313 | 134° | 11km/h | 24983m | 4.8m/s | -50.1°C | 3.2% | 0hPa | 2.5V | 08:30:00 | 01:51:09 | 00:00:00 | |
| BIOWL1-15 | 2026-09-02 00:41:16 | 50.68794 | 1.43278 | 39° | 13km/h | 24924m | 6.2m/s | -50.2°C | 0% | 0hPa | 2.5V | 18:12:15 | 01:50:59 | 00:00:00 | |
| DM0DOS-11 | 2026-09-02 00:41:15 | 50.68794 | 1.43278 | 38° | 13km/h | 24924m | 6.2m/s | -50.2°C | 3.2% | 0hPa | 2.5V | 08:30:00 | 01:50:59 | 00:00:00 | |
| DO1YAY-16 | 2026-09-02 00:41:12 | 50.68792 | 1.43273 | 111° | 4km/h | 24912m | 5.3m/s | -50.3°C | 0.6% | -1.0hPa | 2.6V | 00:00:00 | 00:00:00 | 00:00:00 | |
| AU51GT2 | 2026-09-02 00:41:10 | 50.68793 | 1.43271 | 132° | 5km/h | 24906m | 5.7m/s | -50.4°C | 0.6% | -1.0hPa | 2.6V | 00:00:00 | 00:00:00 | 00:00:00 | |
| DM0DOS-11 | 2026-09-02 00:41:09 | 50.68791 | 1.43262 | 14° | 13km/h | 24857m | 6.3m/s | -50.6°C | 3.3% | 0hPa | 2.6V | 08:30:00 | 01:50:48 | 00:00:00 | |
| BIOWL1-15 | 2026-09-02 00:41:09 | 50.68796 | 1.43263 | 120° | 4km/h | 24881m | 6.5m/s | -50.5°C | 0% | 0hPa | 2.6V | 18:12:15 | 01:50:52 | 00:00:00 | |
| BIOWL1-15 | 2026-09-02 00:40:56 | 50.68789 | 1.43257 | 213° | 7km/h | 24798m | 5.1m/s | -51.1°C | 0% | 0hPa | 2.6V | 18:12:15 | 01:50:38 | 00:00:00 | |
| DM0DOS-11 | 2026-09-02 00:40:56 | 50.68787 | 1.43255 | 205° | 9km/h | 24803m | 5.5m/s | -51.1°C | 3.4% | 0hPa | 2.6V | 08:30:00 | 01:50:39 | 00:00:00 | |
| DM0DOS-11 | 2026-09-02 00:40:48 | 50.68781 | 1.43245 | 124° | 9km/h | 24747m | 6m/s | -51.1°C | 3.4% | 0hPa | 2.6V | 08:30:00 | 01:50:29 | 00:00:00 | |
| BIOWL1-15 | 2026-09-02 00:40:43 | 50.68803 | 1.43187 | 75° | 15km/h | 24628m | 5.4m/s | -51°C | 0% | 0hPa | 2.5V | 18:12:15 | 01:50:08 | 00:00:00 | |
| HTAHTA | 2026-09-02 00:40:37 | 50.68800 | 1.43232 | 129° | 11km/h | 24707m | 5.1m/s | -50.9°C | 0.7% | -1.0hPa | 2.6V | 00:00:00 | 00:00:00 | 00:00:00 | |
| DM0DOS-11 | 2026-09-02 00:40:35 | 50.68804 | 1.43223 | 118° | 5km/h | 24690m | 5.6m/s | -50.9°C | 3.3% | 0hPa | 2.6V | 08:30:00 | 01:50:19 | 00:00:00 | |
| BIOWL1-15 | 2026-09-02 00:40:33 | 50.68764 | 1.43110 | 47° | 24km/h | 24540m | 6.6m/s | -51.2°C | 0% | 0hPa | 2.6V | 18:12:15 | 01:49:52 | 00:00:00 | |
| DM0DOS-11 | 2026-09-02 00:40:28 | 50.68803 | 1.43193 | 79° | 15km/h | 24634m | 5.1m/s | -51°C | 3.3% | 0hPa | 2.6V | 08:30:00 | 01:50:09 | 00:00:00 | |
| DM0DOS-11 | 2026-09-02 00:40:17 | 50.68793 | 1.43141 | 43° | 13km/h | 24579m | 5.5m/s | -51.2°C | 3.4% | 0hPa | 2.6V | 08:30:00 | 01:49:59 | 00:00:00 | |
| BIOWL1-15 | 2026-09-02 00:40:14 | 50.68758 | 1.43094 | 64° | 22km/h | 24529m | 4.8m/s | -51.3°C | 0% | 0hPa | 2.5V | 18:12:15 | 01:49:50 | 00:00:00 | |
| DO1YAY-16 | 2026-09-02 00:40:10 | 50.68778 | 1.43124 | 26° | 22km/h | 24556m | 6.2m/s | -51.2°C | 0.7% | -1.0hPa | 2.6V | 00:00:00 | 00:00:00 | 00:00:00 | |
| AU51GT2 | 2026-09-02 00:40:08 | 50.68773 | 1.43120 | 27° | 20km/h | 24551m | 4.9m/s | -51.2°C | 0.7% | -1.0hPa | 2.6V | 00:00:00 | 00:00:00 | 00:00:00 | |
| HTAHTA | 2026-09-02 00:40:06 | 50.68761 | 1.43102 | 57° | 22km/h | 24534m | 5.1m/s | -51.2°C | 0.7% | -1.0hPa | 2.6V | 00:00:00 | 00:00:00 | 00:00:00 | |
| DM0DOS-11 | 2026-09-02 00:40:05 | 50.68753 | 1.43081 | 56° | 15km/h | 24518m | 5.3m/s | -51.4°C | 3.4% | 0hPa | 2.6V | 08:30:00 | 01:49:48 | 00:00:00 | |
| BIOWL1-15 | 2026-09-02 00:39:53 | 50.68700 | 1.43033 | 5° | 16km/h | 24439m | 5.2m/s | -51.8°C | 0.1% | 0hPa | 2.6V | 18:12:15 | 01:49:33 | 00:00:00 | |
| DM0DOS-11 | 2026-09-02 00:39:53 | 50.68703 | 1.43035 | 21° | 15km/h | 24445m | 4.9m/s | -51.8°C | 3.6% | 0hPa | 2.6V | 08:30:00 | 01:49:34 | 00:00:00 | |
| DM0DOS-11 | 2026-09-02 00:39:42 | 50.68664 | 1.43037 | 17° | 11km/h | 24391m | 5.4m/s | -51.6°C | 3.5% | 0hPa | 2.6V | 08:30:00 | 01:49:24 | 00:00:00 | |
| BIOWL1-15 | 2026-09-02 00:39:40 | 50.68637 | 1.43050 | 303° | 15km/h | 24349m | 5.4m/s | -51.3°C | 0% | 0hPa | 2.6V | 18:12:15 | 01:49:16 | 00:00:00 | |
| BIOWL1-15 | 2026-09-02 00:39:35 | 50.68635 | 1.43056 | 287° | 15km/h | 24343m | 4.5m/s | -51.3°C | 0% | 0hPa | 2.5V | 18:12:15 | 01:49:15 | 00:00:00 | |
| HTAHTA | 2026-09-02 00:39:35 | 50.68652 | 1.43039 | 347° | 16km/h | 24370m | 6.2m/s | -51.4°C | 0.7% | -1.0hPa | 2.6V | 00:00:00 | 00:00:00 | 00:00:00 | |
| DM0DOS-11 | 2026-09-02 00:39:32 | 50.68634 | 1.43061 | 284° | 13km/h | 24339m | 5.3m/s | -51.2°C | 3.4% | 0hPa | 2.6V | 08:30:00 | 01:49:14 | 00:00:00 | |
| DB0UT-7 | 2026-09-02 00:39:26 | 50.68632 | 1.43067 | 309° | 13km/h | 24328m | 4.8m/s | -51.2°C | 3.4% | 0hPa | 2.5V | 00:00:00 | 00:00:00 | 00:00:00 | |
| DM0DOS-11 | 2026-09-02 00:39:21 | 50.68616 | 1.43091 | 298° | 15km/h | 24286m | 6.2m/s | -51.1°C | 3.4% | 0hPa | 2.5V | 08:30:00 | 01:49:04 | 00:00:00 | |
| BIOWL1-15 | 2026-09-02 00:39:19 | 50.68618 | 1.43086 | 318° | 16km/h | 24291m | 5.4m/s | -51.2°C | 0% | 0hPa | 2.6V | 18:12:15 | 01:49:05 | 00:00:00 | |
| BIOWL1-15 | 2026-09-02 00:39:08 | 50.68621 | 1.43134 | 269° | 7km/h | 24231m | 6m/s | -51.5°C | 0% | 0hPa | 2.6V | 18:12:15 | 01:48:54 | 00:00:00 | |
| BIOWL1-15 | 2026-09-02 00:38:57 | 50.68644 | 1.43185 | 239° | 18km/h | 24175m | 4.4m/s | -52°C | 0.1% | 0hPa | 2.6V | 18:12:15 | 01:48:43 | 00:00:00 | |
| DM0DOS-11 | 2026-09-02 00:38:55 | 50.68659 | 1.43201 | 183° | 13km/h | 24143m | 4.6m/s | -52.1°C | 3.6% | 0hPa | 2.6V | 08:30:00 | 01:48:37 | 00:00:00 | |
| BIOWL1-15 | 2026-09-02 00:38:47 | 50.68692 | 1.43200 | 135° | 9km/h | 24085m | 5.7m/s | -52.2°C | 0.1% | 0hPa | 2.6V | 18:12:15 | 01:48:26 | 00:00:00 | |
| DM0DOS-11 | 2026-09-02 00:38:42 | 50.68691 | 1.43203 | 137° | 9km/h | 24090m | 5.4m/s | -52.1°C | 3.6% | 0hPa | 2.6V | 08:30:00 | 01:48:27 | 00:00:00 | |
| DO1YAY-16 | 2026-09-02 00:38:37 | 50.68696 | 1.43185 | 89° | 15km/h | 24063m | 5.3m/s | -52.0°C | 0.7% | -1.0hPa | 2.6V | 00:00:00 | 00:00:00 | 00:00:00 | |
| DM0DOS-11 | 2026-09-02 00:38:35 | 50.68699 | 1.43166 | 121° | 5km/h | 24037m | 6m/s | -51.9°C | 3.6% | 0hPa | 2.6V | 08:30:00 | 01:48:17 | 00:00:00 | |
| BIOWL1-15 | 2026-09-02 00:38:33 | 50.68698 | 1.43168 | 132° | 5km/h | 24042m | 4.4m/s | -51.9°C | 0.1% | 0hPa | 2.6V | 18:12:15 | 01:48:18 | 00:00:00 | |
| BIOWL1-15 | 2026-09-02 00:38:23 | 50.68696 | 1.43128 | 73° | 20km/h | 23994m | 6m/s | -51.8°C | 0.1% | 0hPa | 2.7V | 18:12:15 | 01:48:09 | 00:00:00 | |
| DM0DOS-11 | 2026-09-02 00:38:23 | 50.68692 | 1.43113 | 57° | 20km/h | 23983m | 4.9m/s | -51.8°C | 3.6% | 0hPa | 2.6V | 08:30:00 | 01:48:07 | 00:00:00 | |
| DM0DOS-11 | 2026-09-02 00:38:16 | 50.68673 | 1.43058 | 65° | 20km/h | 23930m | 5.8m/s | -51.4°C | 3.4% | 0hPa | 2.6V | 08:30:00 | 01:47:57 | 00:00:00 | |
| BIOWL1-15 | 2026-09-02 00:38:12 | 50.68671 | 1.43051 | 67° | 22km/h | 23925m | 4.9m/s | 0°C | 0% | 0hPa | 2.6V | 18:12:15 | 01:47:56 | 00:00:00 | |
| DO1YAY-16 | 2026-09-02 00:38:05 | 50.68657 | 1.43012 | 67° | 22km/h | 23897m | 5.8m/s | -51.6°C | 0.7% | -1.0hPa | 2.6V | 00:00:00 | 00:00:00 | 00:00:00 | |
| AU51GT2 | 2026-09-02 00:38:04 | 50.68655 | 1.43004 | 65° | 20km/h | 23891m | 5.3m/s | -51.6°C | 0.7% | -1.0hPa | 2.6V | 00:00:00 | 00:00:00 | 00:00:00 | |
| DM0DOS-11 | 2026-09-02 00:38:03 | 50.68647 | 1.42984 | 51° | 20km/h | 23874m | 5.4m/s | -51.5°C | 3.4% | 0hPa | 2.6V | 08:30:00 | 01:47:47 | 00:00:00 | |
| BIOWL1-15 | 2026-09-02 00:38:02 | 50.68640 | 1.42969 | 59° | 26km/h | 23862m | 5.4m/s | 0°C | 0% | 0hPa | 2.6V | 18:12:15 | 01:47:45 | 00:00:00 | |
| HTAHTA | 2026-09-02 00:38:01 | 50.68647 | 1.42984 | 51° | 20km/h | 23874m | 5.4m/s | -51.6°C | 0.7% | -1.0hPa | 2.6V | 00:00:00 | 00:00:00 | 00:00:00 | |
| DM0DOS-11 | 2026-09-02 00:37:55 | 50.68600 | 1.42894 | 51° | 27km/h | 23820m | 6.2m/s | -51.7°C | 3.4% | 0hPa | 2.6V | 08:30:00 | 01:47:37 | 00:00:00 | |
| BIOWL1-15 | 2026-09-02 00:37:51 | 50.68600 | 1.42894 | 52° | 27km/h | 23820m | 6.2m/s | 0°C | 0% | 0hPa | 2.6V | 18:12:15 | 01:47:37 | 00:00:00 | |
| DB0UT-7 | 2026-09-02 00:37:43 | 50.68566 | 1.42845 | 39° | 13km/h | 23776m | 6.0m/s | -52.1°C | 3.5% | 0hPa | 2.6V | 00:00:00 | 00:00:00 | 00:00:00 | |
| DM0DOS-11 | 2026-09-02 00:37:42 | 50.68553 | 1.42831 | 33° | 31km/h | 23764m | 5.4m/s | -52.2°C | 3.6% | 0hPa | 2.6V | 08:30:00 | 01:47:27 | 00:00:00 | |
| BIOWL1-15 | 2026-09-02 00:37:41 | 50.68553 | 1.42831 | 34° | 31km/h | 23764m | 5.4m/s | 0°C | 0% | 0hPa | 2.6V | 18:12:15 | 01:47:27 | 00:00:00 | |
| DM0DOS-11 | 2026-09-02 00:37:35 | 50.68487 | 1.42772 | 11° | 22km/h | 23709m | 5.6m/s | -52.2°C | 3.7% | 0hPa | 2.6V | 08:30:00 | 01:47:17 | 00:00:00 | |
| BIOWL1-15 | 2026-09-02 00:37:31 | 50.68432 | 1.42741 | 16° | 22km/h | 23660m | 5.1m/s | 0°C | 0% | 0hPa | 2.6V | 18:12:15 | 01:47:08 | 00:00:00 | |
| HTAHTA | 2026-09-02 00:37:30 | 50.68481 | 1.42771 | 6° | 24km/h | 23704m | 5.6m/s | -52.3°C | 0.8% | -1.0hPa | 2.6V | 00:00:00 | 00:00:00 | 00:00:00 | |
| DM0DOS-11 | 2026-09-02 00:37:22 | 50.68427 | 1.42739 | 9° | 18km/h | 23656m | 5m/s | -52.1°C | 3.6% | 0hPa | 2.6V | 08:30:00 | 01:47:07 | 00:00:00 | |
| DM0DOS-11 | 2026-09-02 00:37:15 | 50.68394 | 1.42724 | 30° | 15km/h | 23598m | 6.4m/s | -51.8°C | 3.5% | 0hPa | 2.6V | 08:30:00 | 01:46:57 | 00:00:00 | |
| DO1YAY-16 | 2026-09-02 00:37:03 | 50.68378 | 1.42712 | 18° | 11km/h | 23553m | 5.7m/s | -51.9°C | 0.7% | -1.0hPa | 2.6V | 00:00:00 | 00:00:00 | 00:00:00 | |
| DM0DOS-11 | 2026-09-02 00:37:02 | 50.68372 | 1.42709 | 21° | 11km/h | 23542m | 6m/s | -51.9°C | 3.6% | 0hPa | 2.6V | 08:30:00 | 01:46:47 | 00:00:00 | |
| AU51GT2 | 2026-09-02 00:37:02 | 50.68375 | 1.42710 | 15° | 11km/h | 23547m | 5.1m/s | -51.9°C | 0.8% | -1.0hPa | 2.6V | 00:00:00 | 00:00:00 | 00:00:00 | |
| HTAHTA | 2026-09-02 00:36:59 | 50.68368 | 1.42706 | 44° | 4km/h | 23529m | 5.2m/s | -51.9°C | 0.7% | -1.0hPa | 2.6V | 00:00:00 | 00:00:00 | 00:00:00 | |
| DM0DOS-11 | 2026-09-02 00:36:54 | 50.68368 | 1.42707 | 283° | 2km/h | 23484m | 6m/s | -51.7°C | 3.6% | 0hPa | 2.6V | 08:30:00 | 01:46:37 | 00:00:00 | |
| DJ2DS-15 | 2026-09-02 00:36:44 | 50.68369 | 1.42714 | 263° | 2km/h | 23444m | 4.7m/s | -51.6°C | 0.7% | -1.0hPa | 2.6V | 00:00:00 | 00:00:00 | 00:00:00 | |
| DM0DOS-11 | 2026-09-02 00:36:42 | 50.68374 | 1.42715 | 175° | 11km/h | 23426m | 5.5m/s | -51.6°C | 3.5% | 0hPa | 2.6V | 08:30:00 | 01:46:27 | 00:00:00 | |
| DM0DOS-11 | 2026-09-02 00:36:37 | 50.68399 | 1.42726 | 159° | 7km/h | 23369m | 4.9m/s | -51.8°C | 3.4% | 0hPa | 2.6V | 08:30:00 | 01:46:17 | 00:00:00 | |
| DO1YAY-16 | 2026-09-02 00:36:32 | 50.68397 | 1.42726 | 188° | 7km/h | 23375m | 6.2m/s | -51.7°C | 0.7% | -1.0hPa | 2.6V | 00:00:00 | 00:00:00 | 00:00:00 | |
| AU51GT2 | 2026-09-02 00:36:31 | 50.68399 | 1.42726 | 159° | 7km/h | 23369m | 4.9m/s | -51.8°C | 0.7% | -1.0hPa | 2.6V | 00:00:00 | 00:00:00 | 00:00:00 | |
| DB0UT-7 | 2026-09-02 00:36:30 | 50.68401 | 1.42724 | 147° | 22km/h | 23364m | 5.6m/s | -51.8°C | 3.5% | 0hPa | 2.6V | 00:00:00 | 01:46:16 | 00:00:00 | |
| HTAHTA | 2026-09-02 00:36:28 | 50.68408 | 1.42717 | 146° | 20km/h | 23351m | 6.0m/s | -52.0°C | 0.7% | -1.0hPa | 2.6V | 00:00:00 | 00:00:00 | 00:00:00 | |
| DM0DOS-11 | 2026-09-02 00:36:25 | 50.68441 | 1.42693 | 168° | 18km/h | 23311m | 6.5m/s | -52.1°C | 3.5% | 0hPa | 2.6V | 08:30:00 | 01:46:07 | 00:00:00 | |
| DM0DOS-11 | 2026-09-02 00:36:12 | 50.68493 | 1.42657 | 145° | 20km/h | 23254m | 5.4m/s | -52.1°C | 3.5% | 0hPa | 2.6V | 08:30:00 | 01:45:57 | 00:00:00 | |
| DM0DOS-11 | 2026-09-02 00:36:05 | 50.68525 | 1.42594 | 120° | 29km/h | 23200m | 6m/s | -52.1°C | 3.5% | 0hPa | 2.7V | 08:30:00 | 01:45:47 | 00:00:00 | |
| DO1YAY-16 | 2026-09-02 00:36:01 | 50.68525 | 1.42594 | 120° | 29km/h | 23200m | 6.0m/s | -52.1°C | 0.7% | -1.0hPa | 2.7V | 00:00:00 | 00:00:00 | 00:00:00 | |
| AU51GT2 | 2026-09-02 00:36:00 | 50.68528 | 1.42584 | 115° | 26km/h | 23194m | 5.3m/s | -52.2°C | 0.8% | -1.0hPa | 2.7V | 00:00:00 | 00:00:00 | 00:00:00 | |
| HTAHTA | 2026-09-02 00:35:57 | 50.68536 | 1.42561 | 126° | 16km/h | 23179m | 5.6m/s | -52.2°C | 0.7% | -1.0hPa | 2.7V | 00:00:00 | 00:00:00 | 00:00:00 | |
| DM0DOS-11 | 2026-09-02 00:35:53 | 50.68542 | 1.42531 | 99° | 16km/h | 23145m | 6m/s | -52.4°C | 3.6% | 0hPa | 2.7V | 08:30:00 | 01:45:37 | 00:00:00 | |
| DM0DOS-11 | 2026-09-02 00:35:43 | 50.68539 | 1.42462 | 67° | 18km/h | 23090m | 4.8m/s | -52.5°C | 3.6% | 0hPa | 2.6V | 08:30:00 | 01:45:27 | 00:00:00 | |
| DM0DOS-11 | 2026-09-02 00:35:33 | 50.68508 | 1.42416 | 29° | 16km/h | 23034m | 6.3m/s | -52.4°C | 3.5% | 0hPa | 2.6V | 08:30:00 | 01:45:17 | 00:00:00 | |
| BIOWL1-15 | 2026-09-02 00:35:25 | 50.68486 | 1.42402 | 4° | 24km/h | 22997m | 5.5m/s | -52.7°C | 0.2% | 0hPa | 2.6V | 18:12:15 | 01:45:10 | 00:00:00 | |
| DM0DOS-11 | 2026-09-02 00:35:23 | 50.68465 | 1.42402 | 356° | 26km/h | 22982m | 6m/s | -52.7°C | 3.7% | 0hPa | 2.6V | 08:30:00 | 01:45:07 | 00:00:00 | |
| BIOWL1-15 | 2026-09-02 00:35:18 | 50.68383 | 1.42410 | 356° | 9km/h | 22879m | 4.7m/s | -52.5°C | 0.2% | 0hPa | 2.6V | 18:12:15 | 01:44:48 | 00:00:00 | |
| DM0DOS-11 | 2026-09-02 00:35:12 | 50.68423 | 1.42418 | 356° | 18km/h | 22927m | 5.3m/s | -52.6°C | 3.7% | 0hPa | 2.6V | 08:30:00 | 01:44:57 | 00:00:00 | |
| BIOWL1-15 | 2026-09-02 00:35:03 | 50.68381 | 1.42411 | 351° | 9km/h | 22874m | 5.8m/s | -52.5°C | 0.2% | 0hPa | 2.6V | 18:12:15 | 01:44:47 | 00:00:00 | |
| DM0DOS-11 | 2026-09-02 00:35:02 | 50.68381 | 1.42411 | 351° | 9km/h | 22874m | 5.8m/s | -52.5°C | 3.7% | 0hPa | 2.6V | 08:30:00 | 01:44:47 | 00:00:00 | |
| DO1YAY-16 | 2026-09-02 00:34:59 | 50.68376 | 1.42412 | 354° | 13km/h | 22863m | 4.8m/s | -52.4°C | 0.8% | -1.0hPa | 2.6V | 00:00:00 | 00:00:00 | 00:00:00 | |
| AU51GT2 | 2026-09-02 00:34:58 | 50.68369 | 1.42412 | 11° | 9km/h | 22854m | 5.4m/s | -52.3°C | 0.8% | -1.0hPa | 2.6V | 00:00:00 | 00:00:00 | 00:00:00 | |
| BIOWL9-15 | 2026-09-02 00:34:56 | 50.68366 | 1.42409 | 22° | 5km/h | 22843m | 4.9m/s | -52.3°C | 0.8% | -1.0hPa | 2.6V | 00:00:00 | 00:00:00 | 00:00:00 | |
| HTAHTA | 2026-09-02 00:34:55 | 50.68364 | 1.42408 | 19° | 7km/h | 22837m | 5.8m/s | -52.2°C | 0.8% | -1.0hPa | 2.6V | 00:00:00 | 00:00:00 | 00:00:00 | |
| DM0DOS-11 | 2026-09-02 00:34:52 | 50.68356 | 1.42408 | 354° | 9km/h | 22822m | 4.8m/s | -52.1°C | 3.7% | 0hPa | 2.6V | 08:30:00 | 01:44:37 | 00:00:00 | |
| BIOWL1-15 | 2026-09-02 00:34:51 | 50.68353 | 1.42408 | 351° | 4km/h | 22811m | 4.8m/s | -52°C | 0.2% | 0hPa | 2.7V | 18:12:15 | 01:44:35 | 00:00:00 | |
| DB0UT-7 | 2026-09-02 00:34:48 | 50.68352 | 1.42408 | 6° | 7km/h | 22806m | 6.1m/s | -52.0°C | 3.6% | 0hPa | 2.6V | 00:00:00 | 01:44:34 | 00:00:00 | |
| DM0DOS-11 | 2026-09-02 00:34:42 | 50.68346 | 1.42394 | 58° | 11km/h | 22767m | 4.6m/s | -51.8°C | 3.6% | 0hPa | 2.6V | 08:30:00 | 01:44:27 | 00:00:00 | |
| BIOWL1-15 | 2026-09-02 00:34:41 | 50.68347 | 1.42394 | 58° | 11km/h | 22767m | 4.6m/s | -51.8°C | 0.1% | 0hPa | 2.6V | 18:12:15 | 01:44:27 | 00:00:00 | |
| DM0DOS-11 | 2026-09-02 00:34:36 | 50.68347 | 1.42395 | 216° | 5km/h | 22715m | 5.8m/s | -51.5°C | 3.5% | 0hPa | 2.7V | 08:30:00 | 01:44:17 | 00:00:00 | |
| BIOWL1-15 | 2026-09-02 00:34:33 | 50.68354 | 1.42394 | 143° | 11km/h | 22701m | 5.2m/s | -51.5°C | 0% | 0hPa | 2.6V | 18:12:15 | 01:44:14 | 00:00:00 | |
| DO1YAY-16 | 2026-09-02 00:34:28 | 50.68354 | 1.42394 | 143° | 9km/h | 22701m | 5.2m/s | -51.5°C | 0.7% | -1.0hPa | 2.7V | 00:00:00 | 00:00:00 | 00:00:00 | |
| DM0DOS-11 | 2026-09-02 00:34:26 | 50.68362 | 1.42379 | 160° | 15km/h | 22665m | 5.4m/s | -51.6°C | 3.5% | 0hPa | 2.7V | 08:30:00 | 01:44:07 | 00:00:00 | |
| BIOWL9-15 | 2026-09-02 00:34:25 | 50.68356 | 1.42383 | 102° | 4km/h | 22681m | 4.8m/s | -51.6°C | 0.7% | -1.0hPa | 2.7V | 00:00:00 | 00:00:00 | 00:00:00 | |
| HTAHTA | 2026-09-02 00:34:24 | 50.68356 | 1.42383 | 102° | 4km/h | 22681m | 4.8m/s | -51.6°C | 0.7% | -1.0hPa | 2.7V | 00:00:00 | 00:00:00 | 00:00:00 | |
| DB0UT-7 | 2026-09-02 00:34:18 | 50.68372 | 1.42373 | 166° | 18km/h | 22649m | 5.3m/s | -51.5°C | 3.5% | 0hPa | 2.7V | 00:00:00 | 00:00:00 | 00:00:00 | |
| BIOWL1-15 | 2026-09-02 00:34:18 | 50.68372 | 1.42373 | 166° | 13km/h | 22648m | 5.4m/s | -51.6°C | 0% | 0hPa | 2.6V | 18:12:15 | 01:44:04 | 00:00:00 | |
| DM0DOS-11 | 2026-09-02 00:34:16 | 50.68398 | 1.42369 | 153° | 16km/h | 22612m | 5.9m/s | -51.7°C | 3.5% | 0hPa | 2.7V | 08:30:00 | 01:43:57 | 00:00:00 | |
| BIOWL1-15 | 2026-09-02 00:34:08 | 50.68410 | 1.42359 | 145° | 16km/h | 22596m | 6.1m/s | -51.7°C | 0% | 0hPa | 2.6V | 18:12:15 | 01:43:54 | 00:00:00 | |
| DM0DOS-11 | 2026-09-02 00:34:02 | 50.68439 | 1.42338 | 147° | 20km/h | 22560m | 4.6m/s | -51.9°C | 3.6% | 0hPa | 2.6V | 08:30:00 | 01:43:47 | 00:00:00 | |
| DO1YAY-16 | 2026-09-02 00:33:57 | 50.68458 | 1.42322 | 158° | 20km/h | 22540m | 4.2m/s | -52.0°C | 0.8% | -1.0hPa | 2.6V | 00:00:00 | 00:00:00 | 00:00:00 | |
| DM0DOS-11 | 2026-09-02 00:33:56 | 50.68496 | 1.42295 | 150° | 31km/h | 22505m | 5m/s | -51.9°C | 3.6% | 0hPa | 2.6V | 08:30:00 | 01:43:36 | 00:00:00 | |
| HTAHTA | 2026-09-02 00:33:53 | 50.68476 | 1.42308 | 157° | 22km/h | 22520m | 6.3m/s | -52.0°C | 0.8% | -1.0hPa | 2.6V | 00:00:00 | 00:00:00 | 00:00:00 | |
| DM0DOS-11 | 2026-09-02 00:33:43 | 50.68546 | 1.42223 | 148° | 22km/h | 22455m | 5.5m/s | -51.8°C | 3.5% | 0hPa | 2.6V | 08:30:00 | 01:43:26 | 00:00:00 | |
| DM0DOS-11 | 2026-09-02 00:33:35 | 50.68585 | 1.42174 | 119° | 18km/h | 22404m | 5.9m/s | -51.7°C | 3.5% | 0hPa | 2.6V | 08:30:00 | 01:43:16 | 00:00:00 | |
| DO1YAY-16 | 2026-09-02 00:33:26 | 50.68597 | 1.42145 | 136° | 18km/h | 22384m | 5.3m/s | -51.7°C | 0.7% | -1.0hPa | 2.7V | 00:00:00 | 00:00:00 | 00:00:00 | |
| AU51GT2 | 2026-09-02 00:33:25 | 50.68604 | 1.42137 | 141° | 15km/h | 22374m | 5.4m/s | -51.8°C | 0.7% | -1.0hPa | 2.7V | 00:00:00 | 00:00:00 | 00:00:00 | |
| DM0DOS-11 | 2026-09-02 00:33:23 | 50.68613 | 1.42121 | 130° | 9km/h | 22353m | 5.9m/s | -51.8°C | 3.4% | 0hPa | 2.7V | 08:30:00 | 01:43:06 | 00:00:00 | |
| HTAHTA | 2026-09-02 00:33:22 | 50.68609 | 1.42128 | 127° | 13km/h | 22363m | 4.7m/s | -51.8°C | 0.8% | -1.0hPa | 2.7V | 00:00:00 | 00:00:00 | 00:00:00 | |
| DM0DOS-11 | 2026-09-02 00:33:15 | 50.68633 | 1.42061 | 127° | 24km/h | 22298m | 5.6m/s | -51.9°C | 3.5% | 0hPa | 2.7V | 08:30:00 | 01:42:56 | 00:00:00 | |
| BIOWL1-15 | 2026-09-02 00:33:11 | 50.68630 | 1.42068 | 132° | 24km/h | 22304m | 5.8m/s | -51.9°C | 0% | 0hPa | 2.7V | 18:12:15 | 01:42:57 | 00:00:00 | |
| DB0UT-7 | 2026-09-02 00:33:05 | 50.68650 | 1.42023 | 119° | 27km/h | 22272m | 4.9m/s | -52.1°C | 3.5% | 0hPa | 2.7V | 00:00:00 | 01:42:51 | 00:00:00 | |
| DM0DOS-11 | 2026-09-02 00:33:02 | 50.68667 | 1.41970 | 118° | 33km/h | 22244m | 5.4m/s | -52.1°C | 3.5% | 0hPa | 2.7V | 08:30:00 | 01:42:46 | 00:00:00 | |
| DO1YAY-16 | 2026-09-02 00:32:55 | 50.68684 | 1.41920 | 121° | 22km/h | 22217m | 4.9m/s | -52.1°C | 0.7% | -1.0hPa | 2.6V | 00:00:00 | 00:00:00 | 00:00:00 | |
| AU51GT2 | 2026-09-02 00:32:54 | 50.68689 | 1.41903 | 109° | 24km/h | 22206m | 5.2m/s | -52.2°C | 0.8% | -1.0hPa | 2.6V | 00:00:00 | 00:00:00 | 00:00:00 | |
| HTAHTA | 2026-09-02 00:32:51 | 50.68693 | 1.41884 | 109° | 24km/h | 22196m | 5.3m/s | -52.2°C | 0.8% | -1.0hPa | 2.6V | 00:00:00 | 00:00:00 | 00:00:00 | |
| DM0DOS-11 | 2026-09-02 00:32:50 | 50.68707 | 1.41824 | 111° | 33km/h | 22164m | 5.6m/s | -52.5°C | 3.5% | 0hPa | 2.6V | 08:30:00 | 01:42:31 | 00:00:00 | |
| BIOWL1-15 | 2026-09-02 00:32:44 | 50.68720 | 1.41766 | 92° | 27km/h | 22138m | 4.9m/s | -52.5°C | 0.1% | 0hPa | 2.6V | 18:12:15 | 01:42:26 | 00:00:00 | |
| BIOWL1-15 | 2026-09-02 00:32:32 | 50.68715 | 1.41702 | 81° | 20km/h | 22096m | 6.1m/s | -52.9°C | 0.1% | 0hPa | 2.7V | 18:12:15 | 01:42:18 | 00:00:00 | |
| DM0DOS-11 | 2026-09-02 00:32:28 | 50.68709 | 1.41650 | 65° | 13km/h | 22058m | 6.4m/s | -53.3°C | 3.7% | 0hPa | 2.6V | 08:30:00 | 01:42:11 | 00:00:00 | |
| BIOWL1-15 | 2026-09-02 00:32:21 | 50.68689 | 1.41625 | 43° | 22km/h | 22025m | 5.7m/s | -53.5°C | 0.2% | 0hPa | 2.6V | 18:12:15 | 01:42:05 | 00:00:00 | |
| HTAHTA | 2026-09-02 00:32:20 | 50.68689 | 1.41625 | 42° | 22km/h | 22025m | 5.7m/s | -53.5°C | 0.8% | -1.0hPa | 2.6V | 00:00:00 | 00:00:00 | 00:00:00 | |
| DM0DOS-11 | 2026-09-02 00:32:18 | 50.68670 | 1.41600 | 43° | 26km/h | 22004m | 5.8m/s | -53.5°C | 3.8% | 0hPa | 2.6V | 08:30:00 | 01:42:01 | 00:00:00 | |
| BIOWL1-15 | 2026-09-02 00:32:09 | 50.68636 | 1.41580 | 352° | 15km/h | 21958m | 6.4m/s | -53.6°C | 0.2% | 0hPa | 2.7V | 18:12:15 | 01:41:53 | 00:00:00 | |
| DM0DOS-11 | 2026-09-02 00:32:06 | 50.68628 | 1.41580 | 13° | 15km/h | 21947m | 5.3m/s | -53.6°C | 3.9% | 0hPa | 2.7V | 08:30:00 | 01:41:51 | 00:00:00 | |
| DM0DOS-11 | 2026-09-02 00:32:00 | 50.68600 | 1.41560 | 323° | 7km/h | 21891m | 6.3m/s | -53.5°C | 3.9% | 0hPa | 2.7V | 08:30:00 | 01:41:41 | 00:00:00 | |
| BIOWL1-15 | 2026-09-02 00:31:57 | 50.68602 | 1.41558 | 6° | 5km/h | 21902m | 5.2m/s | -53.6°C | 0.3% | 0hPa | 2.6V | 18:12:15 | 01:41:43 | 00:00:00 | |
| DO1YAY-16 | 2026-09-02 00:31:53 | 50.68596 | 1.41563 | 349° | 4km/h | 21881m | 5.2m/s | -53.4°C | 0.8% | -1.0hPa | 2.7V | 00:00:00 | 00:00:00 | 00:00:00 | |
| AU51GT2 | 2026-09-02 00:31:52 | 50.68594 | 1.41560 | 73° | 7km/h | 21870m | 4.9m/s | -53.4°C | 0.8% | -1.0hPa | 2.7V | 00:00:00 | 00:00:00 | 00:00:00 | |
| DM0DOS-11 | 2026-09-02 00:31:49 | 50.68591 | 1.41545 | 108° | 2km/h | 21833m | 4.7m/s | -53.2°C | 3.8% | 0hPa | 2.7V | 08:30:00 | 01:41:30 | 00:00:00 | |
| BIOWL1-15 | 2026-09-02 00:31:47 | 50.68591 | 1.41549 | 63° | 5km/h | 21849m | 4.7m/s | -53.3°C | 0.2% | 0hPa | 2.6V | 18:12:15 | 01:41:33 | 00:00:00 | |
| BIOWL1-15 | 2026-09-02 00:31:39 | 50.68590 | 1.41541 | 171° | 9km/h | 21777m | 5.3m/s | -53.5°C | 0.2% | 0hPa | 2.7V | 18:12:15 | 01:41:20 | 00:00:00 | |
| DM0DOS-11 | 2026-09-02 00:31:39 | 50.68590 | 1.41541 | 171° | 7km/h | 21777m | 5.3m/s | -53.5°C | 3.8% | 0hPa | 2.7V | 08:30:00 | 01:41:20 | 00:00:00 | |
| BIOWL1-15 | 2026-09-02 00:31:26 | 50.68607 | 1.41549 | 194° | 7km/h | 21734m | 5.8m/s | -53.5°C | 0.3% | 0hPa | 2.6V | 18:12:15 | 01:41:12 | 00:00:00 | |
| DB0UT-7 | 2026-09-02 00:31:22 | 50.68615 | 1.41549 | 177° | 18km/h | 21712m | 5.3m/s | -53.4°C | 3.8% | 0hPa | 2.6V | 00:00:00 | 01:41:08 | 00:00:00 | |
| AU51GT2 | 2026-09-02 00:31:21 | 50.68624 | 1.41548 | 169° | 16km/h | 21701m | 6.0m/s | -53.4°C | 0.9% | -1.0hPa | 2.6V | 00:00:00 | 00:00:00 | 00:00:00 | |
| HTAHTA | 2026-09-02 00:31:18 | 50.68638 | 1.41537 | 144° | 18km/h | 21679m | 5.9m/s | -53.5°C | 0.8% | -1.0hPa | 2.6V | 00:00:00 | 00:00:00 | 00:00:00 | |
| DO1YAY-16 | 2026-09-02 00:30:51 | 50.68702 | 1.41378 | 125° | 24km/h | 21540m | 5.1m/s | -53.2°C | 0.8% | -1.0hPa | 2.6V | 00:00:00 | 00:00:00 | 00:00:00 | |
| AU51GT2 | 2026-09-02 00:30:49 | 50.68705 | 1.41370 | 117° | 22km/h | 21535m | 5.8m/s | -53.1°C | 0.8% | -1.0hPa | 2.6V | 00:00:00 | 00:00:00 | 00:00:00 | |
| HTAHTA | 2026-09-02 00:30:47 | 50.68710 | 1.41340 | 97° | 29km/h | 21520m | 6.1m/s | -53.0°C | 0.8% | -1.0hPa | 2.6V | 00:00:00 | 00:00:00 | 00:00:00 | |
| BIOWL1-15 | 2026-09-02 00:30:38 | 50.68727 | 1.41160 | 98° | 37km/h | 21442m | 5.4m/s | -53.5°C | 0.2% | 0hPa | 2.6V | 18:12:15 | 01:40:17 | 00:00:00 | |
| DM0DOS-11 | 2026-09-02 00:30:28 | 50.68727 | 1.41103 | 87° | 38km/h | 21421m | 6.2m/s | -53.4°C | 3.9% | 0hPa | 2.6V | 08:30:00 | 01:40:13 | 00:00:00 | |
| DM0DOS-11 | 2026-09-02 00:30:22 | 50.68731 | 1.40924 | 92° | 38km/h | 21360m | 5.6m/s | -53.3°C | 3.8% | 0hPa | 2.7V | 08:30:00 | 01:40:01 | 00:00:00 | |
| BIOWL1-15 | 2026-09-02 00:30:21 | 50.68727 | 1.41012 | 93° | 40km/h | 21389m | 5.3m/s | -53.4°C | 0.3% | 0hPa | 2.6V | 18:12:15 | 01:40:07 | 00:00:00 | |
| BIOWL1-15 | 2026-09-02 00:30:11 | 50.68724 | 1.40798 | 82° | 37km/h | 21319m | 5.2m/s | -53.2°C | 0.2% | 0hPa | 2.6V | 18:12:15 | 01:39:53 | 00:00:00 | |
| DM0DOS-11 | 2026-09-02 00:30:08 | 50.68722 | 1.40773 | 85° | 29km/h | 21309m | 3.9m/s | -53.1°C | 3.8% | 0hPa | 2.7V | 08:30:00 | 01:39:51 | 00:00:00 | |
| BIOWL1-15 | 2026-09-02 00:29:59 | 50.68721 | 1.40648 | 80° | 27km/h | 21260m | 5.5m/s | -52.9°C | 0.2% | 0hPa | 2.7V | 18:12:15 | 01:39:41 | 00:00:00 | |
| DM0DOS-11 | 2026-09-02 00:29:57 | 50.68716 | 1.40618 | 80° | 26km/h | 21245m | 5.8m/s | -52.9°C | 3.7% | 0hPa | 2.6V | 08:30:00 | 01:39:38 | 00:00:00 | |
| DO1YAY-16 | 2026-09-02 00:29:49 | 50.68713 | 1.40573 | 82° | 26km/h | 21225m | 5.3m/s | -52.9°C | 0.8% | -1.0hPa | 2.6V | 00:00:00 | 00:00:00 | 00:00:00 | |
| AU51GT2 | 2026-09-02 00:29:47 | 50.68712 | 1.40563 | 80° | 26km/h | 21220m | 4.4m/s | -52.9°C | 0.8% | -1.0hPa | 2.6V | 00:00:00 | 00:00:00 | 00:00:00 | |
| DM0DOS-11 | 2026-09-02 00:29:45 | 50.68705 | 1.40501 | 79° | 18km/h | 21192m | 3.8m/s | -52.8°C | 3.8% | 0hPa | 2.6V | 08:30:00 | 01:39:27 | 00:00:00 | |
| BIOWL1-15 | 2026-09-02 00:29:44 | 50.68705 | 1.40501 | 80° | 18km/h | 21192m | 3.8m/s | 0°C | 0% | 0hPa | 2.6V | 18:12:15 | 01:39:27 | 00:00:00 | |
| DB0UT-7 | 2026-09-02 00:29:40 | 50.68704 | 1.40494 | 85° | 18km/h | 21187m | 5.5m/s | -52.7°C | 3.7% | 0hPa | 2.6V | 00:00:00 | 01:39:26 | 00:00:00 | |
| DM0DOS-11 | 2026-09-02 00:29:33 | 50.68689 | 1.40419 | 80° | 22km/h | 21145m | 4.6m/s | -52.7°C | 3.6% | 0hPa | 2.6V | 08:30:00 | 01:39:17 | 00:00:00 | |
| BIOWL1-15 | 2026-09-02 00:29:30 | 50.68688 | 1.40411 | 76° | 20km/h | 21140m | 5.4m/s | 0°C | 0% | 0hPa | 2.7V | 18:12:15 | 01:39:16 | 00:00:00 | |
| DM0DOS-11 | 2026-09-02 00:29:26 | 50.68674 | 1.40350 | 70° | 20km/h | 21097m | 5.2m/s | -52.8°C | 3.7% | 0hPa | 2.6V | 08:30:00 | 01:39:07 | 00:00:00 | |
| BIOWL1-15 | 2026-09-02 00:29:20 | 50.68662 | 1.40306 | 47° | 11km/h | 21066m | 4.9m/s | 0°C | 0% | 0hPa | 2.7V | 18:12:15 | 01:39:00 | 00:00:00 | |
| DO1YAY-16 | 2026-09-02 00:29:18 | 50.68669 | 1.40319 | 61° | 16km/h | 21079m | 5.5m/s | -52.8°C | 0.8% | -1.0hPa | 2.6V | 00:00:00 | 00:00:00 | 00:00:00 | |
| AU51GT2 | 2026-09-02 00:29:16 | 50.68667 | 1.40314 | 53° | 15km/h | 21074m | 4.2m/s | -52.8°C | 0.8% | -1.0hPa | 2.6V | 00:00:00 | 00:00:00 | 00:00:00 | |
| DM0DOS-11 | 2026-09-02 00:29:15 | 50.68658 | 1.40296 | 60° | 11km/h | 21051m | 5.6m/s | -52.7°C | 3.6% | 0hPa | 2.6V | 08:30:00 | 01:38:57 | 00:00:00 | |
| BIOWL1-15 | 2026-09-02 00:29:09 | 50.68655 | 1.40277 | 81° | 15km/h | 21032m | 3.8m/s | 0°C | 0% | 0hPa | 2.6V | 18:12:15 | 01:38:53 | 00:00:00 | |
| DM0DOS-11 | 2026-09-02 00:29:03 | 50.68644 | 1.40240 | 70° | 15km/h | 21003m | 4.8m/s | -53.1°C | 3.8% | 0hPa | 2.6V | 08:30:00 | 01:38:47 | 00:00:00 | |
| DM0DOS-11 | 2026-09-02 00:28:56 | 50.68631 | 1.40161 | 66° | 26km/h | 20959m | 3.9m/s | -52.8°C | 3.7% | 0hPa | 2.6V | 08:30:00 | 01:38:37 | 00:00:00 | |
| DJ2DS-15 | 2026-09-02 00:28:55 | 50.68638 | 1.40197 | 79° | 22km/h | 20977m | 4.7m/s | -52.9°C | 0.8% | -1.0hPa | 2.7V | 00:00:00 | 00:00:00 | 00:00:00 | |
| DO1YAY-16 | 2026-09-02 00:28:47 | 50.68616 | 1.40110 | 65° | 26km/h | 20935m | 3.9m/s | -52.7°C | 0.8% | -1.0hPa | 2.7V | 00:00:00 | 00:00:00 | 00:00:00 | |
| AU51GT2 | 2026-09-02 00:28:46 | 50.68613 | 1.40100 | 73° | 26km/h | 20931m | 5.4m/s | -52.7°C | 0.8% | -1.0hPa | 2.7V | 00:00:00 | 00:00:00 | 00:00:00 | |
| HTAHTA | 2026-09-02 00:28:43 | 50.68612 | 1.40072 | 85° | 22km/h | 20917m | 4.9m/s | -52.6°C | 0.8% | -1.0hPa | 2.7V | 00:00:00 | 00:00:00 | 00:00:00 | |
| DO1YAY-16 | 2026-09-02 00:28:16 | 50.68590 | 1.39869 | 104° | 11km/h | 20790m | 4.4m/s | -52.8°C | 0.9% | -1.0hPa | 2.7V | 00:00:00 | 00:00:00 | 00:00:00 | |
| AU51GT2 | 2026-09-02 00:28:14 | 50.68591 | 1.39864 | 97° | 9km/h | 20785m | 5.8m/s | -52.8°C | 0.9% | -1.0hPa | 2.7V | 00:00:00 | 00:00:00 | 00:00:00 | |
| HTAHTA | 2026-09-02 00:28:11 | 50.68592 | 1.39851 | 104° | 11km/h | 20771m | 5.7m/s | -52.7°C | 0.8% | -1.0hPa | 2.7V | 00:00:00 | 00:00:00 | 00:00:00 | |
| BIOWL1-15 | 2026-09-02 00:27:44 | 50.68567 | 1.39635 | 62° | 24km/h | 20641m | 5.8m/s | -52.6°C | 0.1% | 0hPa | 2.7V | 18:12:15 | 01:37:30 | 00:00:00 | |
| AU51GT2 | 2026-09-02 00:27:43 | 50.68564 | 1.39627 | 60° | 24km/h | 20636m | 4.0m/s | -52.6°C | 0.8% | -1.0hPa | 2.6V | 00:00:00 | 00:00:00 | 00:00:00 | |
| HTAHTA | 2026-09-02 00:27:40 | 50.68559 | 1.39601 | 88° | 22km/h | 20622m | 4.8m/s | -52.7°C | 0.8% | -1.0hPa | 2.6V | 00:00:00 | 00:00:00 | 00:00:00 | |
| DB0UT-7 | 2026-09-02 00:27:28 | 50.68540 | 1.39483 | 67° | 31km/h | 20563m | 5.6m/s | -52.7°C | 3.6% | 0hPa | 2.6V | 00:00:00 | 00:00:00 | 00:00:00 | |
| DM0DOS-11 | 2026-09-02 00:27:26 | 50.68530 | 1.39436 | 84° | 20km/h | 20528m | 4m/s | -52.8°C | 3.6% | 0hPa | 2.6V | 08:30:00 | 01:37:07 | 00:00:00 | |
| BIOWL1-15 | 2026-09-02 00:27:25 | 50.68534 | 1.39464 | 62° | 18km/h | 20547m | 5.2m/s | -52.8°C | 0.1% | 0hPa | 2.7V | 18:12:15 | 01:37:11 | 00:00:00 | |
| BIOWL1-15 | 2026-09-02 00:27:16 | 50.68520 | 1.39365 | 66° | 29km/h | 20492m | 4m/s | -52.8°C | 0.1% | 0hPa | 2.7V | 18:12:15 | 01:37:00 | 00:00:00 | |
| DO1YAY-16 | 2026-09-02 00:27:13 | 50.68517 | 1.39355 | 66° | 26km/h | 20487m | 5.0m/s | -52.8°C | 0.8% | -1.0hPa | 2.7V | 00:00:00 | 00:00:00 | 00:00:00 | |
| AU51GT2 | 2026-09-02 00:27:12 | 50.68514 | 1.39345 | 69° | 24km/h | 20482m | 5.6m/s | -52.8°C | 0.8% | -1.0hPa | 2.7V | 00:00:00 | 00:00:00 | 00:00:00 | |
| DM0DOS-11 | 2026-09-02 00:27:11 | 50.68511 | 1.39328 | 78° | 24km/h | 20473m | 4.6m/s | -52.8°C | 3.6% | 0hPa | 2.7V | 08:30:00 | 01:36:56 | 00:00:00 | |
| BIOWL1-15 | 2026-09-02 00:27:04 | 50.68504 | 1.39257 | 83° | 33km/h | 20442m | 4.7m/s | -53.1°C | 0.2% | 0hPa | 2.7V | 18:12:15 | 01:36:50 | 00:00:00 | |
| DM0DOS-11 | 2026-09-02 00:27:01 | 50.68499 | 1.39201 | 85° | 37km/h | 20420m | 4.6m/s | -53.2°C | 3.8% | 0hPa | 2.7V | 08:30:00 | 01:36:46 | 00:00:00 | |
| BIOWL1-15 | 2026-09-02 00:26:53 | 50.68489 | 1.39099 | 73° | 33km/h | 20385m | 5m/s | -53.2°C | 0.3% | 0hPa | 2.6V | 18:12:15 | 01:36:39 | 00:00:00 | |
| DM0DOS-11 | 2026-09-02 00:26:50 | 50.68476 | 1.39049 | 62° | 33km/h | 20363m | 5.9m/s | -53.1°C | 3.8% | 0hPa | 2.7V | 08:30:00 | 01:36:35 | 00:00:00 | |
| BIOWL1-15 | 2026-09-02 00:26:43 | 50.68449 | 1.38976 | 64° | 31km/h | 20331m | 5.4m/s | -53.3°C | 0.2% | 0hPa | 2.6V | 18:12:15 | 01:36:29 | 00:00:00 | |
| DO1YAY-16 | 2026-09-02 00:26:42 | 50.68446 | 1.38966 | 65° | 27km/h | 20326m | 4.6m/s | -53.3°C | 0.9% | -1.0hPa | 2.7V | 00:00:00 | 00:00:00 | 00:00:00 | |
| AU51GT2 | 2026-09-02 00:26:41 | 50.68443 | 1.38956 | 66° | 26km/h | 20322m | 4.5m/s | -53.3°C | 0.9% | -1.0hPa | 2.7V | 00:00:00 | 00:00:00 | 00:00:00 | |
| DM0DOS-11 | 2026-09-02 00:26:40 | 50.68436 | 1.38935 | 59° | 33km/h | 20311m | 5.2m/s | -53.2°C | 3.8% | 0hPa | 2.7V | 08:30:00 | 01:36:25 | 00:00:00 | |
| BIOWL1-15 | 2026-09-02 00:26:33 | 50.68366 | 1.38822 | 43° | 29km/h | 20254m | 5.1m/s | -52.8°C | 0.2% | 0hPa | 2.6V | 18:12:15 | 01:36:14 | 00:00:00 | |
| BIOWL1-15 | 2026-09-02 00:26:18 | 50.68290 | 1.38720 | 46° | 35km/h | 20192m | 5.2m/s | -52.8°C | 0.2% | 0hPa | 2.6V | 18:12:15 | 01:36:02 | 00:00:00 | |
| BIOWL1-15 | 2026-09-02 00:26:06 | 50.68240 | 1.38628 | 51° | 31km/h | 20140m | 5m/s | -52.6°C | 0.2% | 0hPa | 2.6V | 18:12:15 | 01:35:52 | 00:00:00 | |
| BIOWL1-15 | 2026-09-02 00:25:55 | 50.68199 | 1.38527 | 58° | 27km/h | 20084m | 5.5m/s | -52.5°C | 0.2% | 0hPa | 2.7V | 18:12:15 | 01:35:41 | 00:00:00 | |
| BIOWL1-15 | 2026-09-02 00:25:45 | 50.68159 | 1.38456 | 51° | 26km/h | 20030m | 6.4m/s | -52.2°C | 0.1% | 0hPa | 2.7V | 18:12:15 | 01:35:31 | 00:00:00 | |
| BIOWL1-15 | 2026-09-02 00:25:34 | 50.68129 | 1.38378 | 76° | 22km/h | 19971m | 5.8m/s | -52.2°C | 0.1% | 0hPa | 2.7V | 18:12:15 | 01:35:20 | 00:00:00 | |
| BIOWL1-15 | 2026-09-02 00:25:24 | 50.68126 | 1.38295 | 105° | 26km/h | 19917m | 6.4m/s | -52.5°C | 0.2% | 0hPa | 2.7V | 18:12:15 | 01:35:10 | 00:00:00 | |
| DJ2DS-15 | 2026-09-02 00:25:19 | 50.68138 | 1.38223 | 105° | 31km/h | 19885m | 5.4m/s | -52.4°C | 0.8% | -1.0hPa | 2.7V | 00:00:00 | 00:00:00 | 00:00:00 | |
| DO1YAY-16 | 2026-09-02 00:25:09 | 50.68150 | 1.38133 | 100° | 24km/h | 19841m | 5.5m/s | -52.3°C | 0.8% | -1.0hPa | 2.7V | 00:00:00 | 00:00:00 | 00:00:00 | |
| AU51GT2 | 2026-09-02 00:25:08 | 50.68152 | 1.38112 | 99° | 27km/h | 19832m | 4.6m/s | -52.4°C | 0.8% | -1.0hPa | 2.7V | 00:00:00 | 00:00:00 | 00:00:00 | |
| DM0DOS-11 | 2026-09-02 00:25:05 | 50.68155 | 1.38082 | 95° | 24km/h | 19817m | 4.5m/s | -52.5°C | 3.7% | 0hPa | 2.7V | 08:30:00 | 01:34:50 | 00:00:00 | |
| HTAHTA | 2026-09-02 00:25:05 | 50.68154 | 1.38092 | 100° | 24km/h | 19822m | 4.4m/s | -52.5°C | 0.9% | -1.0hPa | 2.6V | 00:00:00 | 00:00:00 | 00:00:00 | |
| DM0DOS-11 | 2026-09-02 00:24:51 | 50.68148 | 1.37955 | 79° | 15km/h | 19732m | 4.4m/s | -52.6°C | 3.8% | 0hPa | 2.6V | 08:30:00 | 01:34:33 | 00:00:00 | |
| DM0DOS-11 | 2026-09-02 00:24:41 | 50.68152 | 1.37883 | 120° | 20km/h | 19684m | 5.4m/s | -52.4°C | 0% | 0hPa | 2.6V | 08:30:00 | 01:34:23 | 00:00:00 | |
| DO1YAY-16 | 2026-09-02 00:24:38 | 50.68150 | 1.37890 | 122° | 20km/h | 19689m | 5.6m/s | -52.5°C | -1.0% | -1.0hPa | 2.6V | 00:00:00 | 00:00:00 | 00:00:00 | |
| AU51GT2 | 2026-09-02 00:24:37 | 50.68155 | 1.37877 | 126° | 16km/h | 19679m | 5.1m/s | -52.4°C | 0.8% | -1.0hPa | 2.6V | 00:00:00 | 00:00:00 | 00:00:00 | |
| BIOWL9-15 | 2026-09-02 00:24:35 | 50.68159 | 1.37868 | 125° | 9km/h | 19669m | 3.9m/s | -52.3°C | 0.9% | -1.0hPa | 2.6V | 00:00:00 | 00:00:00 | 00:00:00 | |
| HTAHTA | 2026-09-02 00:24:34 | 50.68159 | 1.37868 | 125° | 9km/h | 19669m | 3.9m/s | -52.3°C | 0.9% | -1.0hPa | 2.6V | 00:00:00 | 00:00:00 | 00:00:00 | |
| DB0UT-7 | 2026-09-02 00:24:33 | 50.68160 | 1.37865 | 109° | 26km/h | 19664m | 4.5m/s | -52.3°C | 3.6% | 0hPa | 2.6V | 00:00:00 | 01:34:19 | 00:00:00 | |
| DM0DOS-11 | 2026-09-02 00:24:28 | 50.68163 | 1.37820 | 108° | 20km/h | 19632m | 4.9m/s | -52.2°C | 0% | 0hPa | 2.6V | 08:30:00 | 01:34:13 | 00:00:00 | |
| BIOWL1-15 | 2026-09-02 00:24:28 | 50.68170 | 1.37797 | 114° | 26km/h | 19618m | 5.3m/s | -52.2°C | 0.1% | 0hPa | 2.7V | 18:12:15 | 01:34:10 | 00:00:00 | |
| BIOWL1-15 | 2026-09-02 00:24:14 | 50.68204 | 1.37680 | 100° | 27km/h | 19555m | 4.7m/s | -52.2°C | 0.1% | 0hPa | 2.6V | 18:12:15 | 01:33:58 | 00:00:00 | |
| BIOWL1-15 | 2026-09-02 00:24:01 | 50.68245 | 1.37552 | 117° | 33km/h | 19500m | 5.6m/s | -52.2°C | 0.1% | 0hPa | 2.6V | 18:12:15 | 01:33:47 | 00:00:00 | |
| BIOWL1-15 | 2026-09-02 00:23:51 | 50.68303 | 1.37365 | 107° | 35km/h | 19430m | 4.9m/s | -52.3°C | 0.1% | 0hPa | 2.6V | 18:12:15 | 01:33:33 | 00:00:00 | |
| BIOWL1-15 | 2026-09-02 00:23:41 | 50.68329 | 1.37249 | 109° | 38km/h | 19385m | 5.9m/s | -52.4°C | 0.1% | 0hPa | 2.7V | 18:12:15 | 01:33:24 | 00:00:00 | |
| BIOWL1-15 | 2026-09-02 00:23:27 | 50.68352 | 1.37078 | 93° | 38km/h | 19330m | 5.2m/s | -52.4°C | 0.1% | 0hPa | 2.7V | 18:12:15 | 01:33:13 | 00:00:00 | |
| BIOWL1-15 | 2026-09-02 00:23:17 | 50.68347 | 1.36925 | 91° | 42km/h | 19276m | 4.1m/s | -52.4°C | 0.1% | 0hPa | 2.7V | 18:12:15 | 01:33:03 | 00:00:00 | |
| AU51GT2 | 2026-09-02 00:23:04 | 50.68331 | 1.36696 | 83° | 33km/h | 19206m | 5.4m/s | -52.4°C | 0.8% | -1.0hPa | 2.6V | 00:00:00 | 00:00:00 | 00:00:00 | |
| HTAHTA | 2026-09-02 00:23:01 | 50.68328 | 1.36671 | 84° | 29km/h | 19196m | 4.9m/s | -52.3°C | 0.8% | -1.0hPa | 2.6V | 00:00:00 | 00:00:00 | 00:00:00 | |
| DB0UT-7 | 2026-09-02 00:22:49 | 50.68325 | 1.36500 | 92° | 40km/h | 19134m | 4.1m/s | -52.0°C | 3.5% | 0hPa | 2.6V | 00:00:00 | 01:32:35 | 08:30:00 | |
| BIOWL1-15 | 2026-09-02 00:22:31 | 50.68368 | 1.36229 | 114° | 38km/h | 19038m | 4.6m/s | -52.3°C | 0.1% | 0hPa | 2.6V | 18:12:15 | 01:32:17 | 00:00:00 | |
| BIOWL1-15 | 2026-09-02 00:22:23 | 50.68397 | 1.36060 | 103° | 40km/h | 18987m | 5.2m/s | -52.3°C | 0.1% | 0hPa | 2.6V | 18:12:15 | 01:32:07 | 00:00:00 | |
| BIOWL1-15 | 2026-09-02 00:22:11 | 50.68419 | 1.35885 | 94° | 42km/h | 18925m | 4.9m/s | -52.1°C | 0.1% | 0hPa | 2.6V | 18:12:15 | 01:31:55 | 00:00:00 | |
| BIOWL1-15 | 2026-09-02 00:21:59 | 50.68427 | 1.35741 | 104° | 35km/h | 18874m | 4.1m/s | -52.2°C | 0.1% | 0hPa | 2.6V | 18:12:15 | 01:31:45 | 00:00:00 | |
| DM0DOS-11 | 2026-09-02 00:21:55 | 50.68433 | 1.35626 | 88° | 37km/h | 18833m | 4.2m/s | -52.4°C | 0% | 0hPa | 2.7V | 08:30:00 | 01:31:37 | 00:00:00 | |
| BIOWL1-15 | 2026-09-02 00:21:49 | 50.68438 | 1.35508 | 96° | 46km/h | 18794m | 5.4m/s | -52.5°C | 0.2% | 0hPa | 2.6V | 18:12:15 | 01:31:29 | 00:00:00 | |
| DM0DOS-11 | 2026-09-02 00:21:43 | 50.68442 | 1.35431 | 92° | 47km/h | 18774m | 4.7m/s | -52.4°C | 0% | 0hPa | 2.6V | 08:30:00 | 01:31:25 | 00:00:00 | |
| DJ2DS-15 | 2026-09-02 00:21:42 | 50.68439 | 1.35489 | 96° | 47km/h | 18789m | 4.6m/s | -52.5°C | 0.9% | -1.0hPa | 2.7V | 00:00:00 | 00:00:00 | 00:00:00 | |
| BIOWL1-15 | 2026-09-02 00:21:34 | 50.68439 | 1.35022 | 85° | 35km/h | 18647m | 5.6m/s | -51.8°C | 0.1% | 0hPa | 2.7V | 18:12:15 | 01:31:00 | 00:00:00 | |
| BIOWL1-15 | 2026-09-02 00:21:23 | 50.68438 | 1.35008 | 82° | 37km/h | 18642m | 4.6m/s | -51.8°C | 0.1% | 0hPa | 2.7V | 18:12:15 | 01:30:59 | 00:00:00 | |
| DM0DOS-11 | 2026-09-02 00:21:23 | 50.68440 | 1.35076 | 86° | 37km/h | 18667m | 4.5m/s | -51.9°C | 0% | 0hPa | 2.7V | 08:30:00 | 01:31:04 | 00:00:00 | |
| BIOWL1-15 | 2026-09-02 00:21:05 | 50.68440 | 1.34852 | 92° | 29km/h | 18583m | 5.4m/s | -52.1°C | 0.1% | 0hPa | 2.6V | 18:12:15 | 01:30:47 | 00:00:00 | |
| BIOWL1-15 | 2026-09-02 00:20:55 | 50.68441 | 1.34787 | 95° | 24km/h | 18552m | 4.9m/s | -52°C | 0% | 0hPa | 2.6V | 18:12:15 | 01:30:41 | 00:00:00 | |
| BIOWL1-15 | 2026-09-02 00:20:44 | 50.68435 | 1.34654 | 89° | 38km/h | 18500m | 5.6m/s | -52.1°C | 0.1% | 0hPa | 2.6V | 18:12:15 | 01:30:30 | 00:00:00 | |
| BIOWL1-15 | 2026-09-02 00:20:34 | 50.68437 | 1.34442 | 86° | 35km/h | 18431m | 4.1m/s | -52°C | 0% | 0hPa | 2.6V | 18:12:15 | 01:30:16 | 00:00:00 | |
| BIOWL1-15 | 2026-09-02 00:20:21 | 50.68458 | 1.34254 | 103° | 31km/h | 18366m | 5.3m/s | -52.7°C | 0.2% | 0hPa | 2.6V | 18:12:15 | 01:30:02 | 00:00:00 | |
| BIOWL1-15 | 2026-09-02 00:20:11 | 50.68471 | 1.34197 | 115° | 31km/h | 18342m | 5.9m/s | -52.7°C | 0.1% | 0hPa | 2.6V | 18:12:15 | 01:29:57 | 00:00:00 | |
| BIOWL1-15 | 2026-09-02 00:20:01 | 50.68552 | 1.33926 | 120° | 47km/h | 18254m | 4.6m/s | -52.9°C | 0.1% | 0hPa | 2.7V | 18:12:15 | 01:29:38 | 00:00:00 | |
| AU51GT2 | 2026-09-02 00:19:57 | 50.68523 | 1.33995 | 125° | 40km/h | 18277m | 4.8m/s | -53.0°C | 0.9% | -1.0hPa | 2.7V | 00:00:00 | 00:00:00 | 00:00:00 | |
| HTAHTA | 2026-09-02 00:19:55 | 50.68540 | 1.33955 | 124° | 40km/h | 18264m | 4.7m/s | 0°C | -1.0% | -1.0hPa | 2.7V | 00:00:00 | 00:00:00 | 00:00:00 | |
| BIOWL1-15 | 2026-09-02 00:19:43 | 50.68627 | 1.33674 | 107° | 46km/h | 18185m | 4.4m/s | -52.9°C | 0.2% | 0hPa | 2.7V | 18:12:15 | 01:29:23 | 00:00:00 | |
| BIOWL1-15 | 2026-09-02 00:19:30 | 50.68661 | 1.33509 | 105° | 49km/h | 18145m | 4.6m/s | -53°C | 0.2% | 0hPa | 2.6V | 18:12:15 | 01:29:14 | 00:00:00 | |
| BIOWL1-15 | 2026-09-02 00:19:19 | 50.68677 | 1.33295 | 98° | 53km/h | 18092m | 5.5m/s | -53.2°C | 0.2% | 0hPa | 2.6V | 18:12:15 | 01:29:03 | 00:00:00 | |
| BIOWL1-15 | 2026-09-02 00:19:08 | 50.68686 | 1.33085 | 91° | 46km/h | 18042m | 4.5m/s | -53.1°C | 0.2% | 0hPa | 2.6V | 18:12:15 | 01:28:52 | 00:00:00 | |
| BIOWL1-15 | 2026-09-02 00:18:55 | 50.68722 | 1.32772 | 109° | 40km/h | 17949m | 5.7m/s | -53.3°C | 0.2% | 0hPa | 2.7V | 18:12:15 | 01:28:33 | 00:00:00 | |
| BIOWL1-15 | 2026-09-02 00:18:46 | 50.68732 | 1.32726 | 112° | 40km/h | 17935m | 5.1m/s | -53.4°C | 0.2% | 0hPa | 2.6V | 18:12:15 | 01:28:30 | 00:00:00 | |
| BIOWL1-15 | 2026-09-02 00:18:35 | 50.68787 | 1.32460 | 109° | 47km/h | 17863m | 5.2m/s | -53.7°C | 0.2% | 0hPa | 2.7V | 18:12:15 | 01:28:15 | 00:00:00 | |
| BIOWL1-15 | 2026-09-02 00:18:22 | 50.68817 | 1.32304 | 105° | 49km/h | 17820m | 5m/s | -54.2°C | 0.3% | 0hPa | 2.6V | 18:12:15 | 01:28:06 | 00:00:00 | |
| BIOWL9-15 | 2026-09-02 00:18:22 | 50.68814 | 1.32322 | 107° | 47km/h | 17825m | 4.3m/s | -54.2°C | 1.0% | -1.0hPa | 2.7V | 00:00:00 | 00:00:00 | 00:00:00 | |
| BIOWL1-15 | 2026-09-02 00:18:10 | 50.68853 | 1.31945 | 86° | 47km/h | 17728m | 4.7m/s | -54.4°C | 0.3% | 0hPa | 2.7V | 18:12:15 | 01:27:47 | 00:00:00 | |
| BIOWL1-15 | 2026-09-02 00:17:58 | 50.68853 | 1.31888 | 95° | 49km/h | 17714m | 3.9m/s | -54.4°C | 0.3% | 0hPa | 2.6V | 18:12:15 | 01:27:44 | 00:00:00 | |
| BIOWL1-15 | 2026-09-02 00:17:48 | 50.68860 | 1.31700 | 84° | 46km/h | 17667m | 5.5m/s | -54.6°C | 0.4% | 0hPa | 2.7V | 18:12:15 | 01:27:34 | 00:00:00 | |
| BIOWL1-15 | 2026-09-02 00:17:39 | 50.68853 | 1.31491 | 90° | 51km/h | 17615m | 5.2m/s | -54.5°C | 0.4% | 0hPa | 2.7V | 18:12:15 | 01:27:23 | 00:00:00 | |
| BIOWL1-15 | 2026-09-02 00:17:27 | 50.68842 | 1.31303 | 84° | 47km/h | 17567m | 5.3m/s | -54.3°C | 0.3% | 0hPa | 2.6V | 18:12:15 | 01:27:13 | 00:00:00 | |
| BIOWL1-15 | 2026-09-02 00:17:16 | 50.68831 | 1.31078 | 80° | 46km/h | 17513m | 5.4m/s | -54°C | 0.3% | 0hPa | 2.6V | 18:12:15 | 01:27:01 | 00:00:00 | |
| DB0UT-7 | 2026-09-02 00:17:12 | 50.68827 | 1.31027 | 84° | 49km/h | 17499m | 5.1m/s | -53.9°C | 4.0% | 0hPa | 2.7V | 00:00:00 | 00:00:00 | 00:00:00 | |
| BIOWL1-15 | 2026-09-02 00:17:05 | 50.68810 | 1.30643 | 86° | 42km/h | 17394m | 4m/s | -53.3°C | 0.2% | 0hPa | 2.7V | 18:12:15 | 01:26:35 | 00:00:00 | |
| AU51GT2 | 2026-09-02 00:16:51 | 50.68811 | 1.30675 | 91° | 38km/h | 17403m | 4.3m/s | -53.4°C | 1.0% | -1.0hPa | 2.7V | 00:00:00 | 00:00:00 | 00:00:00 | |
| BIOWL9-15 | 2026-09-02 00:16:49 | 50.68809 | 1.30626 | 86° | 42km/h | 17389m | 4.1m/s | -53.3°C | 1.0% | -1.0hPa | 2.7V | 00:00:00 | 00:00:00 | 00:00:00 | |
| BIOWL1-15 | 2026-09-02 00:16:46 | 50.68809 | 1.30509 | 99° | 38km/h | 17356m | 4.5m/s | -53.1°C | 0.2% | 0hPa | 2.7V | 18:12:15 | 01:26:27 | 00:00:00 | |
| BIOWL1-15 | 2026-09-02 00:16:33 | 50.68816 | 1.30350 | 97° | 42km/h | 17311m | 4.9m/s | -53.2°C | 0.2% | 0hPa | 2.7V | 18:12:15 | 01:26:17 | 00:00:00 | |
| BIOWL1-15 | 2026-09-02 00:16:23 | 50.68833 | 1.30203 | 103° | 47km/h | 17274m | 5.4m/s | -53.3°C | 0.2% | 0hPa | 2.6V | 18:12:15 | 01:26:09 | 00:00:00 | |
| BIOWL1-15 | 2026-09-02 00:16:13 | 50.68860 | 1.29958 | 102° | 55km/h | 17215m | 4.9m/s | 0°C | 0% | 0hPa | 2.6V | 18:12:15 | 01:25:56 | 00:00:00 | |
| DB0UT-7 | 2026-09-02 00:16:05 | 50.68872 | 1.29857 | 94° | 47km/h | 17193m | 3.7m/s | -53.2°C | 3.8% | 0hPa | 2.7V | 00:00:00 | 01:25:51 | 00:00:00 | |
| DM0DOS-11 | 2026-09-02 00:16:01 | 50.68884 | 1.29624 | 95° | 51km/h | 17138m | 4.3m/s | -53°C | 0% | 0hPa | 2.7V | 08:30:00 | 01:25:39 | 00:00:00 | |
| BIOWL1-15 | 2026-09-02 00:16:01 | 50.68877 | 1.29724 | 94° | 49km/h | 17161m | 4.2m/s | 0°C | 0% | 0hPa | 2.6V | 18:12:15 | 01:25:44 | 00:00:00 | |
| DM0DOS-11 | 2026-09-02 00:15:50 | 50.68890 | 1.29471 | 90° | 44km/h | 17103m | 3.8m/s | -53.1°C | 0% | 0hPa | 2.6V | 08:30:00 | 01:25:31 | 00:00:00 | |
| BIOWL1-15 | 2026-09-02 00:15:49 | 50.68890 | 1.29546 | 93° | 49km/h | 17120m | 5.1m/s | 0°C | 0% | 0hPa | 2.7V | 18:12:15 | 01:25:35 | 00:00:00 | |
| AU51GT2 | 2026-09-02 00:15:49 | 50.68890 | 1.29546 | 93° | 49km/h | 17120m | 5.1m/s | -53.0°C | 1.0% | -1.0hPa | 2.6V | 00:00:00 | 00:00:00 | 00:00:00 | |
| BIOWL1-15 | 2026-09-02 00:15:39 | 50.68890 | 1.29349 | 90° | 47km/h | 17071m | 5.1m/s | 0°C | 0% | 0hPa | 2.6V | 18:12:15 | 01:25:24 | 00:00:00 | |
| DB0UT-7 | 2026-09-02 00:15:35 | 50.68892 | 1.29291 | 95° | 57km/h | 17058m | 5.2m/s | -53.1°C | 3.8% | 0hPa | 2.7V | 00:00:00 | 00:00:00 | 08:30:00 | |
| DM0DOS-11 | 2026-09-02 00:15:34 | 50.68894 | 1.29253 | 93° | 47km/h | 17048m | 5m/s | -53.1°C | 0% | 0hPa | 2.6V | 08:30:00 | 01:25:19 | 00:00:00 | |
| BIOWL1-15 | 2026-09-02 00:15:28 | 50.68911 | 1.29086 | 105° | 55km/h | 17008m | 4.8m/s | 0°C | 0% | 0hPa | 2.7V | 18:12:15 | 01:25:10 | 00:00:00 | |
| DM0DOS-11 | 2026-09-02 00:15:25 | 50.68915 | 1.29065 | 104° | 55km/h | 17004m | 4.1m/s | -53°C | 0% | 0hPa | 2.7V | 08:30:00 | 01:25:09 | 00:00:00 | |
| AU51GT2 | 2026-09-02 00:15:18 | 50.68929 | 1.28956 | 102° | 49km/h | 16981m | 4.3m/s | -53.0°C | 1.0% | -1.0hPa | 2.6V | 00:00:00 | 00:00:00 | 00:00:00 | |
| BIOWL9-15 | 2026-09-02 00:15:16 | 50.68937 | 1.28899 | 99° | 46km/h | 16968m | 4.6m/s | -53.2°C | 1.0% | -1.0hPa | 2.6V | 00:00:00 | 00:00:00 | 00:00:00 | |
| DM0DOS-11 | 2026-09-02 00:15:15 | 50.68941 | 1.28862 | 102° | 47km/h | 16959m | 5.5m/s | -53.4°C | 0% | 0hPa | 2.6V | 08:30:00 | 01:24:59 | 00:00:00 | |
| BIOWL1-15 | 2026-09-02 00:15:11 | 50.68982 | 1.28612 | 100° | 55km/h | 16900m | 5.2m/s | 0°C | 0% | 0hPa | 2.6V | 18:12:15 | 01:24:46 | 00:00:00 | |
| DM0DOS-11 | 2026-09-02 00:15:05 | 50.68980 | 1.28633 | 102° | 53km/h | 16905m | 4.2m/s | -53.4°C | 0% | 0hPa | 2.6V | 08:30:00 | 01:24:47 | 00:00:00 | |
| DM0DOS-11 | 2026-09-02 00:14:55 | 50.69004 | 1.28411 | 94° | 62km/h | 16859m | 4.8m/s | -53.3°C | 0% | 0hPa | 2.7V | 08:30:00 | 01:24:37 | 00:00:00 | |
| BIOWL1-15 | 2026-09-02 00:14:49 | 50.69011 | 1.28285 | 96° | 60km/h | 16836m | 4.9m/s | 0°C | 0% | 0hPa | 2.7V | 18:12:15 | 01:24:32 | 00:00:00 | |
| AU51GT2 | 2026-09-02 00:14:47 | 50.69010 | 1.28310 | 95° | 62km/h | 16841m | 4.9m/s | -53.3°C | 1.0% | -1.0hPa | 2.6V | 00:00:00 | 00:00:00 | 00:00:00 | |
| DM0DOS-11 | 2026-09-02 00:14:45 | 50.69022 | 1.28177 | 95° | 53km/h | 16813m | 4m/s | -53.8°C | 0% | 0hPa | 2.6V | 08:30:00 | 01:24:27 | 00:00:00 | |
| BIOWL9-15 | 2026-09-02 00:14:45 | 50.69016 | 1.28239 | 100° | 55km/h | 16826m | 3.4m/s | -53.5°C | 1.0% | -1.0hPa | 2.7V | 00:00:00 | 00:00:00 | 00:00:00 | |
| BIOWL1-15 | 2026-09-02 00:14:37 | 50.69031 | 1.28088 | 97° | 57km/h | 16795m | 4.7m/s | 0°C | 0% | 0hPa | 2.7V | 18:12:15 | 01:24:23 | 00:00:00 | |
| DM0DOS-11 | 2026-09-02 00:14:35 | 50.69033 | 1.27923 | 88° | 60km/h | 16761m | 4.3m/s | -53.7°C | 0% | 0hPa | 2.7V | 08:30:00 | 01:24:16 | 00:00:00 | |
| DM0DOS-11 | 2026-09-02 00:14:25 | 50.69032 | 1.27683 | 87° | 55km/h | 16713m | 4.1m/s | -53.6°C | 0% | 0hPa | 2.6V | 08:30:00 | 01:24:06 | 00:00:00 | |
| DB0UT-7 | 2026-09-02 00:14:16 | 50.69030 | 1.27595 | 88° | 49km/h | 16694m | 5.2m/s | -53.5°C | 4.0% | 0hPa | 2.6V | 00:00:00 | 01:24:02 | 00:00:00 | |
| DM0DOS-11 | 2026-09-02 00:14:12 | 50.69017 | 1.27397 | 82° | 53km/h | 16652m | 3.5m/s | -53.3°C | 0% | 0hPa | 2.6V | 08:30:00 | 01:23:53 | 00:00:00 | |
| AU51GT2 | 2026-09-02 00:13:45 | 50.69011 | 1.26967 | 93° | 46km/h | 16545m | 4.8m/s | -53.1°C | 1.1% | -1.0hPa | 2.6V | 00:00:00 | 00:00:00 | 00:00:00 | |
| BIOWL1-15 | 2026-09-02 00:13:18 | 50.69047 | 1.26455 | 93° | 60km/h | 16422m | 4.9m/s | -54°C | 0.4% | 0hPa | 2.6V | 18:12:15 | 01:23:04 | 00:00:00 | |
| AU51GT2 | 2026-09-02 00:13:14 | 50.69048 | 1.26337 | 89° | 55km/h | 16398m | 4.2m/s | -54.0°C | 1.2% | -1.0hPa | 2.7V | 00:00:00 | 00:00:00 | 00:00:00 | |
| BIOWL1-15 | 2026-09-02 00:13:08 | 50.69027 | 1.25952 | 80° | 46km/h | 16314m | 4m/s | -54.2°C | 0.5% | 0hPa | 2.7V | 18:12:15 | 01:22:41 | 00:00:00 | |
| BIOWL1-15 | 2026-09-02 00:12:40 | 50.69020 | 1.25646 | 96° | 44km/h | 16230m | 4.9m/s | -53.8°C | 0.4% | 0hPa | 2.6V | 18:12:15 | 01:22:23 | 00:00:00 | |
| BIOWL1-15 | 2026-09-02 00:12:28 | 50.69036 | 1.25460 | 99° | 46km/h | 16177m | 4.6m/s | -53.6°C | 0.4% | 0hPa | 2.7V | 18:12:15 | 01:22:12 | 00:00:00 | |
| BIOWL1-15 | 2026-09-02 00:12:16 | 50.69103 | 1.25166 | 110° | 46km/h | 16098m | 3.8m/s | -54.2°C | 0.4% | 0hPa | 2.6V | 18:12:15 | 01:21:55 | 00:00:00 | |
| BIOWL1-15 | 2026-09-02 00:12:02 | 50.69155 | 1.24960 | 112° | 49km/h | 16050m | 3.5m/s | -54.2°C | 0.4% | 0hPa | 2.7V | 18:12:15 | 01:21:44 | 00:00:00 | |
| BIOWL1-15 | 2026-09-02 00:11:52 | 50.69225 | 1.24746 | 120° | 57km/h | 16000m | 3.7m/s | -54.2°C | 0.5% | 0hPa | 2.6V | 18:12:15 | 01:21:33 | 00:00:00 | |
| BIOWL1-15 | 2026-09-02 00:11:38 | 50.69328 | 1.24485 | 117° | 60km/h | 15940m | 4.1m/s | -54.5°C | 0.5% | 0hPa | 2.6V | 18:12:15 | 01:21:19 | 00:00:00 | |
| BIOWL1-15 | 2026-09-02 00:11:27 | 50.69369 | 1.24362 | 117° | 57km/h | 15912m | 4.8m/s | -54.4°C | 0.5% | 0hPa | 2.6V | 18:12:15 | 01:21:13 | 00:00:00 | |
| BIOWL1-15 | 2026-09-02 00:11:17 | 50.69463 | 1.24041 | 114° | 53km/h | 15846m | 4.5m/s | -54.1°C | 0.4% | 0hPa | 2.7V | 18:12:15 | 01:20:58 | 00:00:00 | |
| BIOWL1-15 | 2026-09-02 00:11:05 | 50.69500 | 1.23905 | 113° | 53km/h | 15814m | 3.4m/s | -54°C | 0.5% | 0hPa | 2.6V | 18:12:15 | 01:20:51 | 00:00:00 | |
| BIOWL1-15 | 2026-09-02 00:10:55 | 50.69589 | 1.23605 | 119° | 58km/h | 15748m | 4m/s | -54°C | 0.4% | 0hPa | 2.6V | 18:12:15 | 01:20:36 | 00:00:00 | |
| BIOWL1-15 | 2026-09-02 00:10:41 | 50.69643 | 1.23421 | 114° | 64km/h | 15706m | 4.9m/s | -54.1°C | 0.4% | 0hPa | 2.7V | 18:12:15 | 01:20:27 | 00:00:00 | |
| BIOWL1-15 | 2026-09-02 00:10:33 | 50.69713 | 1.23176 | 119° | 75km/h | 15656m | 4.7m/s | -54.4°C | 0.5% | 0hPa | 2.6V | 18:12:15 | 01:20:17 | 00:00:00 | |
| BIOWL1-15 | 2026-09-02 00:10:25 | 50.69829 | 1.22777 | 112° | 75km/h | 15589m | 4.2m/s | -54.6°C | 0.6% | 0hPa | 2.7V | 18:12:15 | 01:20:02 | 00:00:00 | |
| DB0UT-7 | 2026-09-02 00:10:22 | 50.69786 | 1.22936 | 114° | 73km/h | 15616m | 5.0m/s | -54.7°C | 4.3% | 0hPa | 2.7V | 00:00:00 | 00:00:00 | 00:00:00 | |
| BIOWL1-15 | 2026-09-02 00:10:05 | 50.69893 | 1.22432 | 109° | 69km/h | 15528m | 5.6m/s | -54.2°C | 0.5% | 0hPa | 2.7V | 18:12:15 | 01:19:49 | 00:00:00 | |
| BIOWL1-15 | 2026-09-02 00:09:52 | 50.69948 | 1.22128 | 107° | 64km/h | 15474m | 4.9m/s | -54.1°C | 0.5% | 0hPa | 2.7V | 18:12:15 | 01:19:37 | 00:00:00 | |
| BIOWL1-15 | 2026-09-02 00:09:43 | 50.69980 | 1.21859 | 102° | 64km/h | 15424m | 3.7m/s | -54°C | 0.6% | 0hPa | 2.6V | 18:12:15 | 01:19:26 | 00:00:00 | |
| BIOWL1-15 | 2026-09-02 00:09:31 | 50.70034 | 1.21429 | 103° | 69km/h | 15344m | 5.4m/s | -54.3°C | 0.6% | 0hPa | 2.7V | 18:12:15 | 01:19:09 | 00:00:00 | |
| BIOWL1-15 | 2026-09-02 00:09:15 | 50.70061 | 1.21199 | 96° | 75km/h | 15307m | 5.3m/s | -54.3°C | 0.6% | 0hPa | 2.6V | 18:12:15 | 01:19:01 | 00:00:00 | |
| BIOWL1-15 | 2026-09-02 00:09:05 | 50.70074 | 1.20902 | 94° | 75km/h | 15261m | 4.3m/s | -54.1°C | 0.6% | 0hPa | 2.7V | 18:12:15 | 01:18:51 | 00:00:00 | |
| BIOWL1-15 | 2026-09-02 00:08:57 | 50.70086 | 1.20625 | 91° | 66km/h | 15215m | 5.5m/s | -53.8°C | 0.6% | 0hPa | 2.6V | 18:12:15 | 01:18:41 | 00:00:00 | |
| BIOWL1-15 | 2026-09-02 00:08:44 | 50.70088 | 1.20282 | 93° | 62km/h | 15155m | 5.1m/s | -53.4°C | 0.5% | 0hPa | 2.7V | 18:12:15 | 01:18:28 | 00:00:00 | |
| BIOWL1-15 | 2026-09-02 00:08:33 | 50.70095 | 1.20017 | 87° | 64km/h | 15102m | 4.8m/s | 0°C | 0% | 0hPa | 2.6V | 18:12:15 | 01:18:17 | 00:00:00 | |
| BIOWL1-15 | 2026-09-02 00:08:22 | 50.70093 | 1.19806 | 92° | 58km/h | 15059m | 5.3m/s | 0°C | 0% | 0hPa | 2.7V | 18:12:15 | 01:18:08 | 00:00:00 | |
| BIOWL1-15 | 2026-09-02 00:08:12 | 50.70088 | 1.19590 | 92° | 51km/h | 15014m | 5.3m/s | 0°C | 0% | 0hPa | 2.6V | 18:12:15 | 01:17:58 | 00:00:00 | |
| BIOWL1-15 | 2026-09-02 00:08:01 | 50.70084 | 1.19347 | 94° | 49km/h | 14962m | 5.3m/s | 0°C | 0% | 0hPa | 2.6V | 18:12:15 | 01:17:47 | 00:00:00 | |
| BIOWL1-15 | 2026-09-02 00:07:51 | 50.70097 | 1.19129 | 100° | 57km/h | 14914m | 3.6m/s | 0°C | 0% | 0hPa | 2.7V | 18:12:15 | 01:17:37 | 00:00:00 | |
| BIOWL1-15 | 2026-09-02 00:07:40 | 50.70130 | 1.18862 | 101° | 53km/h | 14857m | 5.2m/s | 0°C | 0% | 0hPa | 2.7V | 18:12:15 | 01:17:24 | 00:00:00 | |
| BIOWL1-15 | 2026-09-02 00:07:28 | 50.70198 | 1.18585 | 116° | 57km/h | 14792m | 5.1m/s | 0°C | 0% | 0hPa | 2.6V | 18:12:15 | 01:17:10 | 00:00:00 | |
| DB0UT-7 | 2026-09-02 00:07:28 | 50.70175 | 1.18661 | 114° | 55km/h | 14811m | 4.1m/s | -51.7°C | 3.8% | 0hPa | 2.6V | 00:00:00 | 01:17:14 | 08:30:00 | |
| DM0DOS-11 | 2026-09-02 00:07:14 | 50.70276 | 1.18338 | 112° | 49km/h | 14727m | 5.4m/s | -51.1°C | 0% | 0hPa | 2.6V | 08:30:00 | 01:16:57 | 00:00:00 | |
| DM0DOS-11 | 2026-09-02 00:07:04 | 50.70346 | 1.18139 | 122° | 57km/h | 14681m | 4.7m/s | -51.2°C | 0% | 0hPa | 2.6V | 08:30:00 | 01:16:47 | 00:00:00 | |
| BIOWL1-15 | 2026-09-02 00:07:00 | 50.70361 | 1.18103 | 123° | 55km/h | 14672m | 3.2m/s | 0°C | 0% | 0hPa | 2.6V | 18:12:15 | 01:16:45 | 00:00:00 | |
| DB0UT-7 | 2026-09-02 00:06:58 | 50.70368 | 1.18084 | 123° | 75km/h | 14668m | 4.5m/s | -51.3°C | 3.7% | 0hPa | 2.8V | 00:00:00 | 00:00:00 | 00:00:00 | |
| DM0DOS-11 | 2026-09-02 00:06:54 | 50.70426 | 1.17931 | 122° | 68km/h | 14636m | 5.3m/s | -51.4°C | 0% | 0hPa | 2.8V | 08:30:00 | 01:16:37 | 00:00:00 | |
| BIOWL1-15 | 2026-09-02 00:06:46 | 50.70506 | 1.17735 | 120° | 58km/h | 14596m | 4.1m/s | 0°C | 0% | 0hPa | 2.6V | 18:12:15 | 01:16:28 | 00:00:00 | |
| DM0DOS-11 | 2026-09-02 00:06:44 | 50.70514 | 1.17714 | 122° | 60km/h | 14592m | 3.8m/s | 0°C | 0% | 0hPa | 2.6V | 00:00:00 | 01:16:27 | 00:00:00 | |
| BIOWL1-15 | 2026-09-02 00:06:29 | 50.70611 | 1.17450 | 120° | 68km/h | 14539m | 5m/s | 0°C | 0% | 0hPa | 2.6V | 18:12:15 | 01:16:15 | 00:00:00 | |
| AU51GT2 | 2026-09-02 00:05:59 | 50.70889 | 1.16651 | 117° | 82km/h | 14415m | 4.4m/s | -54.4°C | 1.6% | -1.0hPa | 2.7V | 00:00:00 | 00:00:00 | 00:00:00 | |
| DB0UT-7 | 2026-09-02 00:05:44 | 50.71006 | 1.16219 | 107° | 71km/h | 14347m | 4.0m/s | -54.6°C | 4.7% | 0hPa | 2.7V | 00:00:00 | 01:15:30 | 00:00:00 | |
| AU51GT2 | 2026-09-02 00:05:28 | 50.71093 | 1.15774 | 110° | 73km/h | 14279m | 3.9m/s | -54.5°C | 1.7% | -1.0hPa | 2.7V | 00:00:00 | 00:00:00 | 00:00:00 | |
| DB0UT-7 | 2026-09-02 00:05:14 | 50.71165 | 1.15406 | 111° | 78km/h | 14220m | 4.7m/s | -54.3°C | 4.7% | 0hPa | 2.7V | 00:00:00 | 00:00:00 | 00:00:00 | |
| AU51GT2 | 2026-09-02 00:04:58 | 50.71287 | 1.14982 | 117° | 71km/h | 14146m | 4.0m/s | -53.8°C | 1.7% | -1.0hPa | 2.7V | 00:00:00 | 00:00:00 | 00:00:00 | |
| AU51GT2 | 2026-09-02 00:04:26 | 50.71591 | 1.14193 | 126° | 78km/h | 14006m | 5.2m/s | -53.5°C | 1.7% | -1.0hPa | 2.7V | 00:00:00 | 00:00:00 | 00:00:00 | |
| AU51GT2 | 2026-09-02 00:04:00 | 50.71956 | 1.13376 | 122° | 78km/h | 13871m | 3.9m/s | -52.9°C | 1.7% | -1.0hPa | 2.7V | 00:00:00 | 00:00:00 | 00:00:00 | |
| DB0UT-7 | 2026-09-02 00:03:32 | 50.72206 | 1.12757 | 121° | 95km/h | 13769m | 4.4m/s | -52.9°C | 4.5% | 0hPa | 2.7V | 00:00:00 | 00:00:00 | 00:00:00 | |
| AU51GT2 | 2026-09-02 00:03:28 | 50.72295 | 1.12524 | 119° | 78km/h | 13736m | 4.5m/s | -52.9°C | 1.7% | -1.0hPa | 2.7V | 00:00:00 | 00:00:00 | 00:00:00 | |
| AU51GT2 | 2026-09-02 00:03:09 | 50.72662 | 1.11559 | 118° | 99km/h | 13597m | 3.4m/s | -53.2°C | 1.8% | -1.0hPa | 2.7V | 00:00:00 | 00:00:00 | 00:00:00 | |
| AU51GT2 | 2026-09-02 00:02:33 | 50.72973 | 1.10440 | 110° | 95km/h | 13458m | 4.2m/s | -53.6°C | 1.8% | -1.0hPa | 2.7V | 00:00:00 | 00:00:00 | 00:00:00 | |
| DB0UT-7 | 2026-09-02 00:02:27 | 50.73007 | 1.10297 | 113° | 106km/h | 13442m | 4.3m/s | -53.6°C | 4.5% | 0hPa | 2.7V | 00:00:00 | 01:12:04 | 00:00:00 | |
| AU51GT2 | 2026-09-02 00:01:58 | 50.73289 | 1.09195 | 112° | 108km/h | 13324m | 2.7m/s | -54.7°C | 2.0% | -1.0hPa | 2.7V | 00:00:00 | 00:00:00 | 00:00:00 | |
| DB0UT-7 | 2026-09-02 00:01:57 | 50.73310 | 1.09116 | 112° | 99km/h | 13316m | 4.3m/s | -54.6°C | 5.0% | 0hPa | 2.7V | 00:00:00 | 00:00:00 | 00:00:00 | |
| AU51GT2 | 2026-09-02 00:01:24 | 50.73592 | 1.08002 | 112° | 97km/h | 13190m | 4.1m/s | 0°C | -1.0% | -1.0hPa | 2.7V | 00:00:00 | 00:00:00 | 00:00:00 | |
| AU51GT2 | 2026-09-02 00:00:50 | 50.73909 | 1.06933 | 123° | 95km/h | 13046m | 4.3m/s | 0°C | -1.0% | -1.0hPa | 2.7V | 00:00:00 | 00:00:00 | 00:00:00 | |
| DB0UT-7 | 2026-09-02 00:00:37 | 50.74055 | 1.06533 | 118° | 93km/h | 12997m | 3.8m/s | -54.7°C | 5.0% | 0hPa | 2.7V | 00:00:00 | 01:10:22 | 00:00:00 | |
| AU51GT2 | 2026-09-02 00:00:23 | 50.74253 | 1.05900 | 115° | 91km/h | 12915m | 3.1m/s | 0°C | -1.0% | -1.0hPa | 2.7V | 00:00:00 | 00:00:00 | 00:00:00 | |
| DB0UT-7 | 2026-09-02 00:00:09 | 50.74379 | 1.05542 | 120° | 99km/h | 12867m | 3.5m/s | -54.4°C | 5.1% | 0hPa | 2.7V | 00:00:00 | 00:00:00 | 08:30:00 | |
| AU51GT2 | 2026-09-01 23:59:47 | 50.74677 | 1.04819 | 123° | 95km/h | 12766m | 4.4m/s | 0°C | -1.0% | -1.0hPa | 0V | 00:00:00 | 00:00:00 | 00:00:00 | |
| DB0UT-7 | 2026-09-01 23:59:04 | 50.75280 | 1.03613 | 130° | 108km/h | 12591m | 3.9m/s | 0°C | 0% | 0hPa | 0V | 00:00:00 | 01:08:50 | 00:00:00 | |
| DB0UT-7 | 2026-09-01 23:58:34 | 50.75813 | 1.02655 | 133° | 104km/h | 12451m | 4.6m/s | 0°C | 0% | 0hPa | 0V | 00:00:00 | 00:00:00 | 00:00:00 | |
| DB0UT-7 | 2026-09-01 23:57:15 | 50.77221 | 1.00000 | 132° | 131km/h | 12120m | 4.8m/s | 0°C | 0% | 0hPa | 0V | 00:00:00 | 01:07:01 | 00:00:00 | |
| DB0UT-7 | 2026-09-01 23:56:41 | 50.77962 | 0.98677 | 134° | 141km/h | 11979m | 3.5m/s | 0°C | 0% | 0hPa | 0V | 00:00:00 | 00:00:00 | 00:00:00 | |
| DB0UT-7 | 2026-09-01 23:55:28 | 50.79754 | 0.95725 | 135° | 141km/h | 11671m | 3.5m/s | 0°C | 0% | 0hPa | 0V | 00:00:00 | 01:05:14 | 00:00:00 | |
| DB0UT-7 | 2026-09-01 23:54:58 | 50.80473 | 0.94501 | 132° | 130km/h | 11553m | 2.5m/s | 0°C | 0% | 0hPa | 0V | 00:00:00 | 00:00:00 | 00:00:00 | |
| DB0UT-7 | 2026-09-01 23:53:46 | 50.81916 | 0.91464 | 128° | 130km/h | 11254m | 4.3m/s | 0°C | 0% | 0hPa | 0V | 00:00:00 | 01:03:32 | 00:00:00 | |
| DB0UT-7 | 2026-09-01 23:53:16 | 50.82507 | 0.90214 | 126° | 128km/h | 11126m | 3.1m/s | 0°C | 0% | 0hPa | 0V | 00:00:00 | 00:00:00 | 00:00:00 | |
| DB0UT-7 | 2026-09-01 23:51:36 | 50.84238 | 0.85881 | 114° | 113km/h | 10689m | 5.5m/s | 0°C | 0% | 0hPa | 0V | 00:00:00 | 01:01:22 | 00:00:00 |